Observation data for Fort Chadbourne on 12/08/2019      Previous  Date       Current Mesonet Observations  Soil Data  Daily Summary Page  Observations in Plain Language
KCH1 080600Z 12000KT 08/02 A3009 RMK A01 T00770021  RH  068%=      5-min Rain = 0
KCH1 080601Z 11000KT 08/02 A3009 RMK A01 T00760021  RH  068%=      5-min Rain = 0
KCH1 080602Z 10001KT 08/02 A3009 RMK A01 T00750021  RH  068%=      5-min Rain = 0
KCH1 080603Z 10000KT 08/02 A3009 RMK A01 T00750021  RH  068%=      5-min Rain = 0
KCH1 080604Z 09001KT 07/02 A3009 RMK A01 T00740020  RH  069%=      5-min Rain = 0
KCH1 080605Z 09000KT 07/02 A3009 RMK A01 T00710018  RH  069%=      5-min Rain = 0
KCH1 080606Z 09001KT 07/02 A3009 RMK A01 T00700019  RH  070%=      5-min Rain = 0
KCH1 080607Z 08001KT 07/02 A3009 RMK A01 T00700020  RH  071%=      5-min Rain = 0
KCH1 080608Z 07002KT 07/02 A3009 RMK A01 T00690019  RH  071%=      5-min Rain = 0
KCH1 080609Z 07002KT 07/02 A3009 RMK A01 T00670018  RH  071%=      5-min Rain = 0
KCH1 080610Z 07002KT 07/02 A3009 RMK A01 T00650017  RH  071%=      5-min Rain = 0
KCH1 080611Z 06003KT 06/02 A3009 RMK A01 T00630017  RH  073%=      5-min Rain = 0
KCH1 080612Z 07003KT 06/02 A3009 RMK A01 T00620017  RH  073%=      5-min Rain = 0
KCH1 080613Z 06003KT 06/02 A3009 RMK A01 T00600017  RH  074%=      5-min Rain = 0
KCH1 080614Z 07003KT 06/01 A3009 RMK A01 T00560013  RH  073%=      5-min Rain = 0
KCH1 080615Z 07003KT 05/01 A3009 RMK A01 T00530013  RH  075%=      5-min Rain = 0
KCH1 080616Z 07003KT 05/01 A3009 RMK A01 T00510013  RH  077%=      5-min Rain = 0
KCH1 080617Z 05003KT 05/01 A3009 RMK A01 T00490012  RH  077%=      5-min Rain = 0
KCH1 080618Z 06003KT 05/01 A3009 RMK A01 T00450009  RH  077%=      5-min Rain = 0
KCH1 080619Z 07004KT 04/01 A3008 RMK A01 T00410008  RH  079%=      5-min Rain = 0
KCH1 080620Z 06004KT 04/01 A3008 RMK A01 T00380008  RH  081%=      5-min Rain = 0
KCH1 080621Z 07004KT 04/01 A3008 RMK A01 T00360009  RH  082%=      5-min Rain = 0
KCH1 080622Z 08003KT 04/02 A3008 RMK A01 T00380015  RH  085%=      5-min Rain = 0
KCH1 080623Z 09003KT 05/02 A3009 RMK A01 T00450022  RH  085%=      5-min Rain = 0
KCH1 080624Z 08003KT 05/02 A3009 RMK A01 T00520024  RH  082%=      5-min Rain = 0
KCH1 080625Z 08003KT 06/02 A3009 RMK A01 T00560023  RH  079%=      5-min Rain = 0
KCH1 080626Z 08002KT 06/02 A3009 RMK A01 T00570021  RH  077%=      5-min Rain = 0
KCH1 080627Z 09002KT 06/02 A3008 RMK A01 T00580022  RH  078%=      5-min Rain = 0
KCH1 080628Z 10003KT 06/02 A3008 RMK A01 T00610023  RH  077%=      5-min Rain = 0
KCH1 080629Z 10002KT 06/02 A3008 RMK A01 T00630022  RH  075%=      5-min Rain = 0
KCH1 080630Z 12002KT 06/02 A3008 RMK A01 T00630021  RH  074%=      5-min Rain = 0
KCH1 080631Z 12002KT 06/02 A3008 RMK A01 T00640022  RH  074%=      5-min Rain = 0
KCH1 080632Z 14002KT 06/02 A3008 RMK A01 T00640020  RH  073%=      5-min Rain = 0
KCH1 080633Z 19003KT 06/02 A3008 RMK A01 T00640021  RH  074%=      5-min Rain = 0
KCH1 080634Z 17002KT 07/03 A3008 RMK A01 T00660026  RH  075%=      5-min Rain = 0
KCH1 080635Z 16002KT 07/03 A3008 RMK A01 T00700027  RH  074%=      5-min Rain = 0
KCH1 080636Z 15002KT 07/02 A3008 RMK A01 T00730023  RH  071%=      5-min Rain = 0
KCH1 080637Z 14003KT 07/02 A3008 RMK A01 T00700019  RH  070%=      5-min Rain = 0
KCH1 080638Z 14002KT 07/02 A3008 RMK A01 T00660018  RH  071%=      5-min Rain = 0
KCH1 080639Z 15002KT 06/02 A3008 RMK A01 T00640018  RH  072%=      5-min Rain = 0
KCH1 080640Z 14002KT 06/02 A3008 RMK A01 T00640020  RH  074%=      5-min Rain = 0
KCH1 080641Z 14003KT 07/02 A3008 RMK A01 T00660022  RH  074%=      5-min Rain = 0
KCH1 080642Z 13002KT 07/02 A3008 RMK A01 T00670020  RH  072%=      5-min Rain = 0
KCH1 080643Z 14002KT 07/02 A3008 RMK A01 T00650019  RH  072%=      5-min Rain = 0
KCH1 080644Z 13003KT 06/02 A3007 RMK A01 T00640020  RH  073%=      5-min Rain = 0
KCH1 080645Z 13003KT 06/02 A3007 RMK A01 T00630018  RH  073%=      5-min Rain = 0
KCH1 080646Z 13002KT 06/02 A3007 RMK A01 T00630020  RH  074%=      5-min Rain = 0
KCH1 080647Z 14003KT 06/02 A3007 RMK A01 T00640020  RH  073%=      5-min Rain = 0
KCH1 080648Z 12003KT 06/02 A3007 RMK A01 T00630019  RH  073%=      5-min Rain = 0
KCH1 080649Z 11002KT 06/02 A3007 RMK A01 T00610017  RH  073%=      5-min Rain = 0
KCH1 080650Z 10003KT 06/02 A3007 RMK A01 T00590016  RH  074%=      5-min Rain = 0
KCH1 080651Z 10003KT 06/02 A3007 RMK A01 T00570016  RH  075%=      5-min Rain = 0
KCH1 080652Z 09003KT 06/02 A3007 RMK A01 T00560016  RH  076%=      5-min Rain = 0
KCH1 080653Z 10003KT 06/02 A3007 RMK A01 T00550017  RH  076%=      5-min Rain = 0
KCH1 080654Z 10003KT 06/02 A3007 RMK A01 T00550018  RH  077%=      5-min Rain = 0
KCH1 080655Z 10003KT 06/02 A3007 RMK A01 T00550018  RH  077%=      5-min Rain = 0
KCH1 080656Z 10003KT 06/02 A3007 RMK A01 T00560018  RH  077%=      5-min Rain = 0
KCH1 080657Z 12003KT 06/02 A3007 RMK A01 T00560019  RH  077%=      5-min Rain = 0
KCH1 080658Z 12002KT 06/02 A3007 RMK A01 T00570020  RH  077%=      5-min Rain = 0
KCH1 080659Z 12002KT 06/02 A3007 RMK A01 T00590021  RH  077%=      5-min Rain = 0
KCH1 080700Z 13003KT 06/02 A3007 RMK A01 T00600022  RH  076%=      5-min Rain = 0
KCH1 080701Z 13003KT 06/02 A3007 RMK A01 T00610022  RH  076%=      5-min Rain = 0
KCH1 080702Z 14003KT 06/02 A3007 RMK A01 T00610021  RH  076%=      5-min Rain = 0
KCH1 080703Z 16004KT 06/02 A3006 RMK A01 T00610021  RH  076%=      5-min Rain = 0
KCH1 080704Z 16002KT 06/02 A3006 RMK A01 T00620024  RH  077%=      5-min Rain = 0
KCH1 080705Z 15003KT 07/03 A3006 RMK A01 T00660027  RH  076%=      5-min Rain = 0
KCH1 080706Z 17004KT 07/03 A3006 RMK A01 T00700028  RH  074%=      5-min Rain = 0
KCH1 080707Z 18004KT 07/03 A3006 RMK A01 T00730029  RH  074%=      5-min Rain = 0
KCH1 080708Z 18004KT 08/03 A3006 RMK A01 T00780031  RH  072%=      5-min Rain = 0
KCH1 080709Z 17004KT 08/03 A3006 RMK A01 T00800031  RH  071%=      5-min Rain = 0
KCH1 080710Z 17005KT 08/03 A3006 RMK A01 T00820031  RH  070%=      5-min Rain = 0
KCH1 080711Z 17005KT 08/03 A3006 RMK A01 T00830031  RH  070%=      5-min Rain = 0
KCH1 080712Z 18005KT 08/03 A3006 RMK A01 T00840030  RH  069%=      5-min Rain = 0
KCH1 080713Z 18005KT 08/03 A3006 RMK A01 T00840030  RH  069%=      5-min Rain = 0
KCH1 080714Z 18005KT 09/03 A3006 RMK A01 T00850030  RH  069%=      5-min Rain = 0
KCH1 080715Z 18005KT 08/03 A3005 RMK A01 T00840031  RH  069%=      5-min Rain = 0
KCH1 080716Z 18006KT 09/03 A3005 RMK A01 T00850033  RH  070%=      5-min Rain = 0
KCH1 080717Z 18006KT 09/03 A3005 RMK A01 T00870034  RH  069%=      5-min Rain = 0
KCH1 080718Z 18005KT 09/04 A3005 RMK A01 T00880035  RH  069%=      5-min Rain = 0
KCH1 080719Z 18006KT 09/04 A3005 RMK A01 T00890036  RH  069%=      5-min Rain = 0
KCH1 080720Z 17006KT 09/04 A3005 RMK A01 T00890036  RH  069%=      5-min Rain = 0
KCH1 080721Z 17006KT 09/04 A3005 RMK A01 T00900036  RH  069%=      5-min Rain = 0
KCH1 080722Z 17007KT 09/04 A3005 RMK A01 T00910036  RH  068%=      5-min Rain = 0
KCH1 080723Z 17006KT 09/04 A3004 RMK A01 T00910036  RH  068%=      5-min Rain = 0
KCH1 080724Z 17006KT 09/04 A3004 RMK A01 T00910036  RH  068%=      5-min Rain = 0
KCH1 080725Z 17006KT 09/04 A3004 RMK A01 T00920035  RH  068%=      5-min Rain = 0
KCH1 080726Z 17006KT 09/04 A3004 RMK A01 T00920036  RH  068%=      5-min Rain = 0
KCH1 080727Z 17005KT 09/04 A3004 RMK A01 T00920036  RH  068%=      5-min Rain = 0
KCH1 080728Z 16005KT 09/04 A3004 RMK A01 T00920036  RH  068%=      5-min Rain = 0
KCH1 080729Z 17004KT 09/04 A3004 RMK A01 T00910036  RH  068%=      5-min Rain = 0
KCH1 080730Z 16005KT 09/04 A3004 RMK A01 T00910036  RH  069%=      5-min Rain = 0
KCH1 080731Z 16005KT 09/04 A3004 RMK A01 T00900036  RH  069%=      5-min Rain = 0
KCH1 080732Z 16004KT 09/03 A3004 RMK A01 T00890033  RH  068%=      5-min Rain = 0
KCH1 080733Z 16004KT 09/03 A3004 RMK A01 T00860030  RH  068%=      5-min Rain = 0
KCH1 080734Z 16003KT 08/03 A3003 RMK A01 T00830029  RH  069%=      5-min Rain = 0
KCH1 080735Z 14003KT 08/03 A3003 RMK A01 T00810029  RH  070%=      5-min Rain = 0
KCH1 080736Z 13002KT 08/03 A3003 RMK A01 T00790028  RH  070%=      5-min Rain = 0
KCH1 080737Z 16002KT 08/03 A3003 RMK A01 T00780028  RH  071%=      5-min Rain = 0
KCH1 080738Z 18002KT 08/03 A3003 RMK A01 T00780031  RH  072%=      5-min Rain = 0
KCH1 080739Z 15003KT 08/03 A3003 RMK A01 T00800032  RH  072%=      5-min Rain = 0
KCH1 080740Z 14002KT 08/03 A3003 RMK A01 T00800031  RH  071%=      5-min Rain = 0
KCH1 080741Z 13002KT 08/03 A3003 RMK A01 T00800030  RH  071%=      5-min Rain = 0
KCH1 080742Z 07001KT 08/03 A3003 RMK A01 T00790029  RH  071%=      5-min Rain = 0
KCH1 080743Z 04001KT 08/03 A3003 RMK A01 T00780030  RH  072%=      5-min Rain = 0
KCH1 080744Z 08002KT 08/03 A3003 RMK A01 T00770029  RH  072%=      5-min Rain = 0
KCH1 080745Z 08001KT 08/03 A3003 RMK A01 T00750027  RH  072%=      5-min Rain = 0
KCH1 080746Z 08001KT 07/03 A3003 RMK A01 T00730027  RH  072%=      5-min Rain = 0
KCH1 080747Z 07001KT 07/03 A3003 RMK A01 T00720027  RH  073%=      5-min Rain = 0
KCH1 080748Z 07001KT 07/03 A3003 RMK A01 T00710027  RH  074%=      5-min Rain = 0
KCH1 080749Z 02000KT 07/03 A3003 RMK A01 T00710028  RH  074%=      5-min Rain = 0
KCH1 080750Z 03001KT 07/03 A3003 RMK A01 T00720029  RH  075%=      5-min Rain = 0
KCH1 080751Z 05001KT 07/03 A3003 RMK A01 T00720030  RH  075%=      5-min Rain = 0
KCH1 080752Z 04002KT 08/03 A3003 RMK A01 T00750032  RH  074%=      5-min Rain = 0
KCH1 080753Z 04003KT 08/03 A3003 RMK A01 T00760032  RH  073%=      5-min Rain = 0
KCH1 080754Z 06002KT 08/03 A3003 RMK A01 T00770032  RH  073%=      5-min Rain = 0
KCH1 080755Z 06002KT 08/03 A3003 RMK A01 T00770032  RH  073%=      5-min Rain = 0
KCH1 080756Z 05002KT 08/03 A3003 RMK A01 T00780032  RH  073%=      5-min Rain = 0
KCH1 080757Z 09002KT 08/03 A3003 RMK A01 T00780033  RH  073%=      5-min Rain = 0
KCH1 080758Z 08002KT 08/03 A3003 RMK A01 T00790033  RH  073%=      5-min Rain = 0
KCH1 080759Z 09002KT 08/03 A3003 RMK A01 T00800033  RH  072%=      5-min Rain = 0
KCH1 080800Z 12001KT 08/03 A3003 RMK A01 T00810033  RH  072%=      5-min Rain = 0
KCH1 080801Z 14002KT 08/03 A3003 RMK A01 T00810033  RH  072%=      5-min Rain = 0
KCH1 080802Z 14002KT 08/03 A3003 RMK A01 T00810033  RH  072%=      5-min Rain = 0
KCH1 080803Z 15002KT 08/03 A3003 RMK A01 T00810034  RH  072%=      5-min Rain = 0
KCH1 080804Z 14002KT 08/04 A3003 RMK A01 T00830035  RH  072%=      5-min Rain = 0
KCH1 080805Z 15002KT 08/04 A3003 RMK A01 T00840035  RH  071%=      5-min Rain = 0
KCH1 080806Z 17002KT 08/03 A3003 RMK A01 T00840034  RH  071%=      5-min Rain = 0
KCH1 080807Z 16002KT 08/03 A3003 RMK A01 T00840034  RH  071%=      5-min Rain = 0
KCH1 080808Z 19003KT 08/04 A3003 RMK A01 T00840035  RH  071%=      5-min Rain = 0
KCH1 080809Z 18003KT 09/04 A3003 RMK A01 T00860036  RH  071%=      5-min Rain = 0
KCH1 080810Z 18003KT 09/04 A3003 RMK A01 T00870036  RH  070%=      5-min Rain = 0
KCH1 080811Z 19004KT 09/04 A3003 RMK A01 T00880037  RH  070%=      5-min Rain = 0
KCH1 080812Z 19004KT 09/04 A3003 RMK A01 T00900038  RH  070%=      5-min Rain = 0
KCH1 080813Z 19004KT 09/04 A3003 RMK A01 T00920038  RH  069%=      5-min Rain = 0
KCH1 080814Z 19005KT 09/04 A3003 RMK A01 T00930039  RH  069%=      5-min Rain = 0
KCH1 080815Z 19004KT 09/04 A3003 RMK A01 T00940039  RH  069%=      5-min Rain = 0
KCH1 080816Z 19004KT 10/04 A3003 RMK A01 T00950039  RH  068%=      5-min Rain = 0
KCH1 080817Z 19005KT 10/04 A3003 RMK A01 T00950040  RH  068%=      5-min Rain = 0
KCH1 080818Z 19005KT 10/04 A3003 RMK A01 T00960040  RH  068%=      5-min Rain = 0
KCH1 080819Z 19004KT 10/04 A3003 RMK A01 T00980041  RH  068%=      5-min Rain = 0
KCH1 080820Z 19004KT 10/04 A3003 RMK A01 T00980041  RH  067%=      5-min Rain = 0
KCH1 080821Z 18003KT 10/04 A3003 RMK A01 T00980041  RH  067%=      5-min Rain = 0
KCH1 080822Z 18003KT 10/04 A3003 RMK A01 T00970039  RH  067%=      5-min Rain = 0
KCH1 080823Z 17002KT 10/04 A3003 RMK A01 T00960039  RH  068%=      5-min Rain = 0
KCH1 080824Z 16002KT 09/04 A3003 RMK A01 T00940038  RH  068%=      5-min Rain = 0
KCH1 080825Z 13001KT 09/04 A3003 RMK A01 T00920036  RH  068%=      5-min Rain = 0
KCH1 080826Z 14001KT 09/04 A3003 RMK A01 T00900037  RH  069%=      5-min Rain = 0
KCH1 080827Z 09001KT 09/04 A3003 RMK A01 T00890038  RH  070%=      5-min Rain = 0
KCH1 080828Z 09000KT 09/04 A3003 RMK A01 T00890037  RH  070%=      5-min Rain = 0
KCH1 080829Z 11001KT 09/04 A3003 RMK A01 T00900038  RH  070%=      5-min Rain = 0
KCH1 080830Z 06001KT 09/04 A3003 RMK A01 T00910039  RH  070%=      5-min Rain = 0
KCH1 080831Z 07002KT 09/04 A3003 RMK A01 T00910037  RH  069%=      5-min Rain = 0
KCH1 080832Z 08002KT 09/04 A3003 RMK A01 T00880035  RH  069%=      5-min Rain = 0
KCH1 080833Z 07002KT 09/04 A3003 RMK A01 T00850035  RH  071%=      5-min Rain = 0
KCH1 080834Z 08002KT 08/04 A3003 RMK A01 T00840035  RH  071%=      5-min Rain = 0
KCH1 080835Z 07002KT 08/04 A3003 RMK A01 T00830035  RH  072%=      5-min Rain = 0
KCH1 080836Z 08002KT 08/04 A3003 RMK A01 T00820035  RH  072%=      5-min Rain = 0
KCH1 080837Z 08002KT 08/03 A3003 RMK A01 T00810034  RH  072%=      5-min Rain = 0
KCH1 080838Z 09002KT 08/03 A3003 RMK A01 T00800034  RH  073%=      5-min Rain = 0
KCH1 080839Z 09001KT 08/04 A3003 RMK A01 T00800035  RH  073%=      5-min Rain = 0
KCH1 080840Z 11001KT 08/04 A3003 RMK A01 T00800035  RH  073%=      5-min Rain = 0
KCH1 080841Z 13002KT 08/03 A3003 RMK A01 T00800034  RH  073%=      5-min Rain = 0
KCH1 080842Z 15002KT 08/03 A3003 RMK A01 T00790033  RH  073%=      5-min Rain = 0
KCH1 080843Z 16003KT 08/03 A3002 RMK A01 T00770032  RH  073%=      5-min Rain = 0
KCH1 080844Z 16002KT 08/03 A3002 RMK A01 T00770032  RH  073%=      5-min Rain = 0
KCH1 080845Z 17002KT 08/03 A3002 RMK A01 T00770033  RH  074%=      5-min Rain = 0
KCH1 080846Z 17003KT 08/03 A3002 RMK A01 T00770033  RH  074%=      5-min Rain = 0
KCH1 080847Z 18003KT 08/03 A3002 RMK A01 T00770033  RH  074%=      5-min Rain = 0
KCH1 080848Z 18004KT 08/03 A3002 RMK A01 T00790034  RH  074%=      5-min Rain = 0
KCH1 080849Z 18005KT 08/04 A3002 RMK A01 T00810035  RH  073%=      5-min Rain = 0
KCH1 080850Z 18005KT 08/04 A3001 RMK A01 T00830036  RH  072%=      5-min Rain = 0
KCH1 080851Z 17004KT 09/04 A3001 RMK A01 T00850037  RH  071%=      5-min Rain = 0
KCH1 080852Z 17004KT 09/04 A3001 RMK A01 T00860035  RH  070%=      5-min Rain = 0
KCH1 080853Z 17005KT 09/04 A3001 RMK A01 T00860035  RH  070%=      5-min Rain = 0
KCH1 080854Z 17005KT 09/04 A3001 RMK A01 T00850035  RH  071%=      5-min Rain = 0
KCH1 080855Z 16004KT 09/04 A30 RMK A01 T00850035  RH  071%=      5-min Rain = 0
KCH1 080856Z 16004KT 08/03 A30 RMK A01 T00840034  RH  071%=      5-min Rain = 0
KCH1 080857Z 15003KT 08/03 A30 RMK A01 T00810032  RH  071%=      5-min Rain = 0
KCH1 080858Z 14003KT 08/03 A30 RMK A01 T00780030  RH  072%=      5-min Rain = 0
KCH1 080859Z 14002KT 07/03 A30 RMK A01 T00720026  RH  073%=      5-min Rain = 0
KCH1 080900Z 14002KT 07/03 A30 RMK A01 T00680027  RH  075%=      5-min Rain = 0
KCH1 080901Z 15002KT 07/03 A30 RMK A01 T00660027  RH  076%=      5-min Rain = 0
KCH1 080902Z 16003KT 06/03 A30 RMK A01 T00640026  RH  077%=      5-min Rain = 0
KCH1 080903Z 15001KT 06/02 A30 RMK A01 T00610024  RH  077%=      5-min Rain = 0
KCH1 080904Z 16002KT 06/03 A30 RMK A01 T00590026  RH  079%=      5-min Rain = 0
KCH1 080905Z 16001KT 06/03 A30 RMK A01 T00610029  RH  080%=      5-min Rain = 0
KCH1 080906Z 14000KT 06/03 A30 RMK A01 T00610028  RH  079%=      5-min Rain = 0
KCH1 080907Z 17001KT 06/03 A30 RMK A01 T00610028  RH  080%=      5-min Rain = 0
KCH1 080908Z 16002KT 06/03 A30 RMK A01 T00620030  RH  080%=      5-min Rain = 0
KCH1 080909Z 17001KT 06/03 A30 RMK A01 T00640032  RH  080%=      5-min Rain = 0
KCH1 080910Z 19001KT 07/03 A30 RMK A01 T00660033  RH  079%=      5-min Rain = 0
KCH1 080911Z 18001KT 07/04 A30 RMK A01 T00690035  RH  079%=      5-min Rain = 0
KCH1 080912Z 19002KT 07/04 A30 RMK A01 T00720036  RH  078%=      5-min Rain = 0
KCH1 080913Z 20001KT 07/04 A30 RMK A01 T00730036  RH  077%=      5-min Rain = 0
KCH1 080914Z 21001KT 08/04 A30 RMK A01 T00750037  RH  077%=      5-min Rain = 0
KCH1 080915Z 19001KT 08/04 A30 RMK A01 T00770037  RH  076%=      5-min Rain = 0
KCH1 080916Z 21002KT 08/04 A30 RMK A01 T00790038  RH  075%=      5-min Rain = 0
KCH1 080917Z 22001KT 08/04 A30 RMK A01 T00800038  RH  074%=      5-min Rain = 0
KCH1 080918Z 22002KT 08/04 A30 RMK A01 T00820038  RH  074%=      5-min Rain = 0
KCH1 080919Z 22002KT 08/04 A3001 RMK A01 T00830038  RH  073%=      5-min Rain = 0
KCH1 080920Z 23003KT 08/04 A3001 RMK A01 T00840038  RH  073%=      5-min Rain = 0
KCH1 080921Z 23003KT 09/04 A3001 RMK A01 T00850039  RH  073%=      5-min Rain = 0
KCH1 080922Z 24002KT 09/04 A3001 RMK A01 T00870039  RH  072%=      5-min Rain = 0
KCH1 080923Z 25002KT 09/04 A3001 RMK A01 T00870039  RH  072%=      5-min Rain = 0
KCH1 080924Z 22002KT 09/04 A3001 RMK A01 T00880039  RH  072%=      5-min Rain = 0
KCH1 080925Z 23003KT 09/04 A3001 RMK A01 T00890040  RH  072%=      5-min Rain = 0
KCH1 080926Z 22003KT 09/04 A3001 RMK A01 T00900041  RH  071%=      5-min Rain = 0
KCH1 080927Z 22003KT 09/04 A3001 RMK A01 T00910041  RH  071%=      5-min Rain = 0
KCH1 080928Z 23003KT 09/04 A3001 RMK A01 T00920042  RH  071%=      5-min Rain = 0
KCH1 080929Z 23003KT 09/04 A3001 RMK A01 T00930042  RH  070%=      5-min Rain = 0
KCH1 080930Z 24001KT 09/04 A3001 RMK A01 T00940042  RH  070%=      5-min Rain = 0
KCH1 080931Z 24003KT 09/04 A3001 RMK A01 T00940042  RH  070%=      5-min Rain = 0
KCH1 080932Z 25003KT 10/04 A3001 RMK A01 T00950042  RH  070%=      5-min Rain = 0
KCH1 080933Z 24002KT 10/04 A3001 RMK A01 T00960043  RH  069%=      5-min Rain = 0
KCH1 080934Z 25003KT 10/04 A3001 RMK A01 T00980043  RH  069%=      5-min Rain = 0
KCH1 080935Z 24004KT 10/04 A3001 RMK A01 T00990043  RH  068%=      5-min Rain = 0
KCH1 080936Z 24003KT 10/04 A3001 RMK A01 T01000043  RH  068%=      5-min Rain = 0
KCH1 080937Z 25003KT 10/04 A3001 RMK A01 T01020044  RH  067%=      5-min Rain = 0
KCH1 080938Z 24003KT 10/04 A3001 RMK A01 T01030044  RH  067%=      5-min Rain = 0
KCH1 080939Z 24003KT 10/04 A3001 RMK A01 T01030043  RH  067%=      5-min Rain = 0
KCH1 080940Z 24003KT 10/04 A3001 RMK A01 T01030044  RH  067%=      5-min Rain = 0
KCH1 080941Z 24003KT 10/04 A3001 RMK A01 T01040044  RH  067%=      5-min Rain = 0
KCH1 080942Z 24003KT 10/04 A3001 RMK A01 T01040044  RH  066%=      5-min Rain = 0
KCH1 080943Z 23002KT 11/05 A3001 RMK A01 T01050045  RH  066%=      5-min Rain = 0
KCH1 080944Z 23003KT 11/04 A3001 RMK A01 T01050044  RH  066%=      5-min Rain = 0
KCH1 080945Z 22003KT 11/04 A3001 RMK A01 T01060044  RH  066%=      5-min Rain = 0
KCH1 080946Z 22004KT 11/05 A3001 RMK A01 T01060045  RH  066%=      5-min Rain = 0
KCH1 080947Z 21003KT 11/05 A3001 RMK A01 T01080045  RH  065%=      5-min Rain = 0
KCH1 080948Z 20004KT 11/05 A3001 RMK A01 T01080045  RH  065%=      5-min Rain = 0
KCH1 080949Z 21004KT 11/05 A30 RMK A01 T01080045  RH  065%=      5-min Rain = 0
KCH1 080950Z 20004KT 11/05 A30 RMK A01 T01090045  RH  065%=      5-min Rain = 0
KCH1 080951Z 20005KT 11/05 A30 RMK A01 T01090045  RH  065%=      5-min Rain = 0
KCH1 080952Z 20005KT 11/05 A30 RMK A01 T01080045  RH  065%=      5-min Rain = 0
KCH1 080953Z 20004KT 11/05 A3001 RMK A01 T01090045  RH  065%=      5-min Rain = 0
KCH1 080954Z 20004KT 11/05 A3001 RMK A01 T01080045  RH  065%=      5-min Rain = 0
KCH1 080955Z 20004KT 11/05 A30 RMK A01 T01070045  RH  066%=      5-min Rain = 0
KCH1 080956Z 19004KT 11/05 A30 RMK A01 T01070045  RH  066%=      5-min Rain = 0
KCH1 080957Z 19004KT 11/05 A30 RMK A01 T01070045  RH  066%=      5-min Rain = 0
KCH1 080958Z 19004KT 11/05 A30 RMK A01 T01060045  RH  066%=      5-min Rain = 0
KCH1 080959Z 20005KT 11/05 A30 RMK A01 T01050045  RH  066%=      5-min Rain = 0
KCH1 081000Z 20005KT 10/05 A30 RMK A01 T01040045  RH  067%=      5-min Rain = 0
KCH1 081001Z 20005KT 10/05 A30 RMK A01 T01040045  RH  067%=      5-min Rain = 0
KCH1 081002Z 20006KT 10/05 A30 RMK A01 T01030045  RH  067%=      5-min Rain = 0
KCH1 081003Z 20006KT 10/05 A30 RMK A01 T01020045  RH  068%=      5-min Rain = 0
KCH1 081004Z 20006KT 10/05 A30 RMK A01 T01010045  RH  068%=      5-min Rain = 0
KCH1 081005Z 20005KT 10/05 A30 RMK A01 T01010045  RH  068%=      5-min Rain = 0
KCH1 081006Z 20005KT 10/05 A30 RMK A01 T01000045  RH  069%=      5-min Rain = 0
KCH1 081007Z 20005KT 10/05 A30 RMK A01 T01000045  RH  069%=      5-min Rain = 0
KCH1 081008Z 21005KT 10/05 A30 RMK A01 T01000045  RH  069%=      5-min Rain = 0
KCH1 081009Z 20005KT 10/05 A30 RMK A01 T01000045  RH  069%=      5-min Rain = 0
KCH1 081010Z 20004KT 10/05 A30 RMK A01 T01010045  RH  069%=      5-min Rain = 0
KCH1 081011Z 20004KT 10/05 A30 RMK A01 T01010045  RH  068%=      5-min Rain = 0
KCH1 081012Z 21004KT 10/05 A30 RMK A01 T01010045  RH  068%=      5-min Rain = 0
KCH1 081013Z 20003KT 10/05 A30 RMK A01 T01010045  RH  068%=      5-min Rain = 0
KCH1 081014Z 20004KT 10/05 A30 RMK A01 T01020045  RH  068%=      5-min Rain = 0
KCH1 081015Z 20004KT 10/05 A30 RMK A01 T01020046  RH  068%=      5-min Rain = 0
KCH1 081016Z 20003KT 10/05 A30 RMK A01 T01020045  RH  068%=      5-min Rain = 0
KCH1 081017Z 19003KT 10/05 A30 RMK A01 T01020045  RH  068%=      5-min Rain = 0
KCH1 081018Z 19003KT 10/04 A30 RMK A01 T01010044  RH  068%=      5-min Rain = 0
KCH1 081019Z 20003KT 10/04 A30 RMK A01 T01000043  RH  068%=      5-min Rain = 0
KCH1 081020Z 18003KT 10/04 A30 RMK A01 T00980041  RH  068%=      5-min Rain = 0
KCH1 081021Z 18003KT 10/04 A30 RMK A01 T00960041  RH  069%=      5-min Rain = 0
KCH1 081022Z 19003KT 10/04 A30 RMK A01 T00950041  RH  069%=      5-min Rain = 0
KCH1 081023Z 18003KT 09/04 A30 RMK A01 T00930041  RH  070%=      5-min Rain = 0
KCH1 081024Z 19003KT 09/04 A30 RMK A01 T00920041  RH  070%=      5-min Rain = 0
KCH1 081025Z 19003KT 09/04 A30 RMK A01 T00910041  RH  071%=      5-min Rain = 0
KCH1 081026Z 19003KT 09/04 A30 RMK A01 T00910041  RH  071%=      5-min Rain = 0
KCH1 081027Z 18003KT 09/04 A30 RMK A01 T00910041  RH  071%=      5-min Rain = 0
KCH1 081028Z 19004KT 09/04 A30 RMK A01 T00910042  RH  071%=      5-min Rain = 0
KCH1 081029Z 18004KT 09/04 A30 RMK A01 T00920042  RH  071%=      5-min Rain = 0
KCH1 081030Z 18004KT 09/04 A30 RMK A01 T00920042  RH  071%=      5-min Rain = 0
KCH1 081031Z 17004KT 09/04 A30 RMK A01 T00920042  RH  071%=      5-min Rain = 0
KCH1 081032Z 17005KT 09/04 A30 RMK A01 T00920042  RH  071%=      5-min Rain = 0
KCH1 081033Z 18005KT 09/04 A30 RMK A01 T00920042  RH  071%=      5-min Rain = 0
KCH1 081034Z 18005KT 09/04 A30 RMK A01 T00920043  RH  071%=      5-min Rain = 0
KCH1 081035Z 19005KT 09/04 A30 RMK A01 T00930043  RH  071%=      5-min Rain = 0
KCH1 081036Z 19005KT 09/04 A30 RMK A01 T00940044  RH  071%=      5-min Rain = 0
KCH1 081037Z 19005KT 10/04 A30 RMK A01 T00950044  RH  071%=      5-min Rain = 0
KCH1 081038Z 19005KT 10/04 A30 RMK A01 T00950044  RH  070%=      5-min Rain = 0
KCH1 081039Z 18005KT 10/04 A30 RMK A01 T00950044  RH  070%=      5-min Rain = 0
KCH1 081040Z 18005KT 10/04 A30 RMK A01 T00950044  RH  071%=      5-min Rain = 0
KCH1 081041Z 18004KT 10/04 A30 RMK A01 T00950044  RH  071%=      5-min Rain = 0
KCH1 081042Z 18004KT 10/04 A30 RMK A01 T00950044  RH  071%=      5-min Rain = 0
KCH1 081043Z 18005KT 09/04 A30 RMK A01 T00940044  RH  071%=      5-min Rain = 0
KCH1 081044Z 18004KT 09/04 A30 RMK A01 T00940044  RH  071%=      5-min Rain = 0
KCH1 081045Z 19004KT 09/04 A30 RMK A01 T00920042  RH  071%=      5-min Rain = 0
KCH1 081046Z 19004KT 09/04 A30 RMK A01 T00900041  RH  071%=      5-min Rain = 0
KCH1 081047Z 20003KT 09/04 A30 RMK A01 T00880042  RH  072%=      5-min Rain = 0
KCH1 081048Z 19003KT 09/04 A30 RMK A01 T00870042  RH  073%=      5-min Rain = 0
KCH1 081049Z 19003KT 09/04 A30 RMK A01 T00870041  RH  073%=      5-min Rain = 0
KCH1 081050Z 19003KT 09/04 A30 RMK A01 T00860041  RH  074%=      5-min Rain = 0
KCH1 081051Z 19002KT 09/04 A2999 RMK A01 T00850041  RH  074%=      5-min Rain = 0
KCH1 081052Z 19002KT 08/04 A2999 RMK A01 T00840041  RH  074%=      5-min Rain = 0
KCH1 081053Z 18002KT 08/04 A2999 RMK A01 T00830041  RH  075%=      5-min Rain = 0
KCH1 081054Z 18001KT 08/04 A2999 RMK A01 T00820041  RH  075%=      5-min Rain = 0
KCH1 081055Z 18001KT 08/04 A30 RMK A01 T00820041  RH  075%=      5-min Rain = 0
KCH1 081056Z 15000KT 08/04 A30 RMK A01 T00810041  RH  076%=      5-min Rain = 0
KCH1 081057Z 00000KT 08/04 A30 RMK A01 T00800040  RH  076%=      5-min Rain = 0
KCH1 081058Z 05000KT 08/04 A2999 RMK A01 T00790040  RH  076%=      5-min Rain = 0
KCH1 081059Z 07000KT 08/04 A2999 RMK A01 T00790041  RH  077%=      5-min Rain = 0
KCH1 081100Z 00000KT 08/04 A2999 RMK A01 T00790041  RH  077%=      5-min Rain = 0
KCH1 081101Z 18000KT 08/04 A2999 RMK A01 T00790042  RH  077%=      5-min Rain = 0
KCH1 081102Z 21000KT 08/04 A2999 RMK A01 T00800042  RH  077%=      5-min Rain = 0
KCH1 081103Z 19000KT 08/04 A2999 RMK A01 T00800042  RH  077%=      5-min Rain = 0
KCH1 081104Z 19001KT 08/04 A2999 RMK A01 T00810042  RH  077%=      5-min Rain = 0
KCH1 081105Z 20002KT 08/04 A2999 RMK A01 T00810042  RH  076%=      5-min Rain = 0
KCH1 081106Z 19002KT 08/04 A2999 RMK A01 T00810042  RH  077%=      5-min Rain = 0
KCH1 081107Z 19002KT 08/04 A2999 RMK A01 T00810042  RH  077%=      5-min Rain = 0
KCH1 081108Z 20003KT 08/04 A2999 RMK A01 T00810042  RH  077%=      5-min Rain = 0
KCH1 081109Z 21003KT 08/04 A2999 RMK A01 T00820042  RH  076%=      5-min Rain = 0
KCH1 081110Z 21003KT 08/04 A2999 RMK A01 T00820043  RH  076%=      5-min Rain = 0
KCH1 081111Z 21004KT 08/04 A30 RMK A01 T00830043  RH  076%=      5-min Rain = 0
KCH1 081112Z 21004KT 08/04 A30 RMK A01 T00840043  RH  076%=      5-min Rain = 0
KCH1 081113Z 21004KT 09/04 A30 RMK A01 T00850044  RH  076%=      5-min Rain = 0
KCH1 081114Z 21004KT 09/04 A30 RMK A01 T00860044  RH  075%=      5-min Rain = 0
KCH1 081115Z 21003KT 09/05 A2999 RMK A01 T00880045  RH  074%=      5-min Rain = 0
KCH1 081116Z 21002KT 09/05 A2999 RMK A01 T00890045  RH  074%=      5-min Rain = 0
KCH1 081117Z 20002KT 09/04 A2999 RMK A01 T00900044  RH  073%=      5-min Rain = 0
KCH1 081118Z 20002KT 09/04 A2999 RMK A01 T00880042  RH  073%=      5-min Rain = 0
KCH1 081119Z 20001KT 09/04 A2999 RMK A01 T00850040  RH  073%=      5-min Rain = 0
KCH1 081120Z 00000KT 08/04 A2999 RMK A01 T00810039  RH  075%=      5-min Rain = 0
KCH1 081121Z 08000KT 08/04 A2999 RMK A01 T00790040  RH  076%=      5-min Rain = 0
KCH1 081122Z 09000KT 08/04 A2999 RMK A01 T00790041  RH  077%=      5-min Rain = 0
KCH1 081123Z 02001KT 08/04 A2999 RMK A01 T00800044  RH  078%=      5-min Rain = 0
KCH1 081124Z 35001KT 08/04 A2999 RMK A01 T00830044  RH  077%=      5-min Rain = 0
KCH1 081125Z 35000KT 08/04 A30 RMK A01 T00830043  RH  076%=      5-min Rain = 0
KCH1 081126Z 34001KT 08/04 A30 RMK A01 T00840044  RH  076%=      5-min Rain = 0
KCH1 081127Z 35000KT 08/04 A30 RMK A01 T00840043  RH  075%=      5-min Rain = 0
KCH1 081128Z 23000KT 08/04 A30 RMK A01 T00840043  RH  075%=      5-min Rain = 0
KCH1 081129Z 23001KT 09/05 A30 RMK A01 T00860045  RH  075%=      5-min Rain = 0
KCH1 081130Z 23000KT 09/05 A2999 RMK A01 T00870045  RH  075%=      5-min Rain = 0
KCH1 081131Z 19000KT 09/05 A2999 RMK A01 T00870045  RH  075%=      5-min Rain = 0
KCH1 081132Z 20001KT 09/05 A2999 RMK A01 T00870045  RH  075%=      5-min Rain = 0
KCH1 081133Z 21002KT 09/05 A30 RMK A01 T00860045  RH  075%=      5-min Rain = 0
KCH1 081134Z 21002KT 09/05 A30 RMK A01 T00870045  RH  075%=      5-min Rain = 0
KCH1 081135Z 21002KT 09/05 A30 RMK A01 T00870045  RH  075%=      5-min Rain = 0
KCH1 081136Z 21003KT 09/05 A30 RMK A01 T00890045  RH  074%=      5-min Rain = 0
KCH1 081137Z 21003KT 09/05 A30 RMK A01 T00900046  RH  074%=      5-min Rain = 0
KCH1 081138Z 21004KT 09/05 A30 RMK A01 T00910046  RH  073%=      5-min Rain = 0
KCH1 081139Z 22004KT 09/05 A30 RMK A01 T00920046  RH  073%=      5-min Rain = 0
KCH1 081140Z 22003KT 09/05 A30 RMK A01 T00930046  RH  072%=      5-min Rain = 0
KCH1 081141Z 22003KT 09/05 A30 RMK A01 T00930046  RH  072%=      5-min Rain = 0
KCH1 081142Z 21003KT 09/05 A30 RMK A01 T00930046  RH  072%=      5-min Rain = 0
KCH1 081143Z 20003KT 09/05 A30 RMK A01 T00930046  RH  073%=      5-min Rain = 0
KCH1 081144Z 20003KT 09/05 A30 RMK A01 T00930047  RH  073%=      5-min Rain = 0
KCH1 081145Z 20002KT 09/05 A30 RMK A01 T00930047  RH  073%=      5-min Rain = 0
KCH1 081146Z 20003KT 09/04 A30 RMK A01 T00900043  RH  072%=      5-min Rain = 0
KCH1 081147Z 20002KT 09/04 A30 RMK A01 T00880044  RH  074%=      5-min Rain = 0
KCH1 081148Z 19003KT 09/04 A2999 RMK A01 T00860044  RH  075%=      5-min Rain = 0
KCH1 081149Z 20003KT 09/04 A2999 RMK A01 T00850044  RH  075%=      5-min Rain = 0
KCH1 081150Z 20003KT 08/04 A2999 RMK A01 T00840043  RH  076%=      5-min Rain = 0
KCH1 081151Z 20004KT 08/04 A2999 RMK A01 T00820043  RH  076%=      5-min Rain = 0
KCH1 081152Z 20003KT 08/04 A2999 RMK A01 T00820042  RH  076%=      5-min Rain = 0
KCH1 081153Z 18003KT 08/04 A2999 RMK A01 T00800041  RH  076%=      5-min Rain = 0
KCH1 081154Z 18003KT 08/04 A2999 RMK A01 T00760037  RH  076%=      5-min Rain = 0
KCH1 081155Z 18002KT 07/03 A2999 RMK A01 T00700032  RH  077%=      5-min Rain = 0
KCH1 081156Z 18002KT 07/03 A2999 RMK A01 T00650030  RH  079%=      5-min Rain = 0
KCH1 081157Z 18002KT 06/03 A2999 RMK A01 T00620030  RH  080%=      5-min Rain = 0
KCH1 081158Z 15001KT 06/03 A2999 RMK A01 T00590030  RH  082%=      5-min Rain = 0
KCH1 081159Z 15002KT 06/03 A2998 RMK A01 T00570031  RH  083%=      5-min Rain = 0
KCH1 081200Z 16001KT 06/03 A2998 RMK A01 T00570033  RH  085%=      5-min Rain = 0
KCH1 081201Z 17001KT 06/03 A2998 RMK A01 T00570034  RH  085%=      5-min Rain = 0
KCH1 081202Z 17002KT 06/03 A2998 RMK A01 T00560034  RH  086%=      5-min Rain = 0
KCH1 081203Z 18002KT 06/03 A2998 RMK A01 T00560034  RH  086%=      5-min Rain = 0
KCH1 081204Z 17001KT 06/03 A2998 RMK A01 T00560034  RH  085%=      5-min Rain = 0
KCH1 081205Z 16002KT 06/03 A2998 RMK A01 T00570034  RH  085%=      5-min Rain = 0
KCH1 081206Z 16002KT 06/03 A2997 RMK A01 T00570034  RH  085%=      5-min Rain = 0
KCH1 081207Z 16002KT 06/04 A2997 RMK A01 T00580035  RH  085%=      5-min Rain = 0
KCH1 081208Z 18001KT 06/04 A2998 RMK A01 T00600038  RH  086%=      5-min Rain = 0
KCH1 081209Z 10001KT 06/04 A2998 RMK A01 T00620040  RH  086%=      5-min Rain = 0
KCH1 081210Z 15001KT 06/04 A2998 RMK A01 T00630039  RH  085%=      5-min Rain = 0
KCH1 081211Z 19002KT 06/04 A2998 RMK A01 T00640040  RH  085%=      5-min Rain = 0
KCH1 081212Z 15000KT 07/04 A2998 RMK A01 T00650039  RH  084%=      5-min Rain = 0
KCH1 081213Z 19001KT 07/04 A2998 RMK A01 T00650039  RH  084%=      5-min Rain = 0
KCH1 081214Z 21001KT 07/04 A2998 RMK A01 T00660042  RH  085%=      5-min Rain = 0
KCH1 081215Z 16000KT 07/04 A2998 RMK A01 T00670041  RH  084%=      5-min Rain = 0
KCH1 081216Z 24000KT 07/04 A2998 RMK A01 T00670040  RH  083%=      5-min Rain = 0
KCH1 081217Z 25000KT 07/04 A2998 RMK A01 T00660039  RH  083%=      5-min Rain = 0
KCH1 081218Z 31001KT 07/04 A2998 RMK A01 T00660040  RH  083%=      5-min Rain = 0
KCH1 081219Z 30001KT 07/04 A2998 RMK A01 T00660042  RH  084%=      5-min Rain = 0
KCH1 081220Z 28002KT 07/04 A2998 RMK A01 T00690044  RH  084%=      5-min Rain = 0
KCH1 081221Z 26002KT 07/05 A2998 RMK A01 T00720046  RH  083%=      5-min Rain = 0
KCH1 081222Z 27001KT 08/05 A2999 RMK A01 T00750047  RH  082%=      5-min Rain = 0
KCH1 081223Z 27002KT 08/05 A2999 RMK A01 T00770046  RH  081%=      5-min Rain = 0
KCH1 081224Z 24003KT 08/05 A2999 RMK A01 T00780046  RH  080%=      5-min Rain = 0
KCH1 081225Z 25002KT 08/05 A2999 RMK A01 T00800047  RH  080%=      5-min Rain = 0
KCH1 081226Z 25002KT 08/05 A2999 RMK A01 T00820048  RH  079%=      5-min Rain = 0
KCH1 081227Z 24002KT 08/05 A2999 RMK A01 T00840048  RH  078%=      5-min Rain = 0
KCH1 081228Z 24002KT 09/05 A2999 RMK A01 T00850048  RH  077%=      5-min Rain = 0
KCH1 081229Z 22002KT 09/05 A2999 RMK A01 T00870049  RH  077%=      5-min Rain = 0
KCH1 081230Z 21003KT 09/05 A2998 RMK A01 T00890049  RH  076%=      5-min Rain = 0
KCH1 081231Z 21003KT 09/05 A2998 RMK A01 T00900048  RH  075%=      5-min Rain = 0
KCH1 081232Z 22002KT 09/05 A2998 RMK A01 T00910048  RH  075%=      5-min Rain = 0
KCH1 081233Z 21002KT 09/05 A2998 RMK A01 T00910048  RH  074%=      5-min Rain = 0
KCH1 081234Z 20002KT 09/05 A2998 RMK A01 T00900047  RH  074%=      5-min Rain = 0
KCH1 081235Z 21003KT 09/05 A2998 RMK A01 T00890047  RH  075%=      5-min Rain = 0
KCH1 081236Z 20003KT 09/05 A2998 RMK A01 T00880046  RH  075%=      5-min Rain = 0
KCH1 081237Z 19003KT 09/04 A2998 RMK A01 T00860043  RH  075%=      5-min Rain = 0
KCH1 081238Z 20002KT 08/04 A2998 RMK A01 T00830043  RH  076%=      5-min Rain = 0
KCH1 081239Z 20002KT 08/04 A2998 RMK A01 T00820044  RH  077%=      5-min Rain = 0
KCH1 081240Z 19002KT 08/04 A2998 RMK A01 T00810044  RH  078%=      5-min Rain = 0
KCH1 081241Z 19003KT 08/04 A2998 RMK A01 T00800043  RH  078%=      5-min Rain = 0
KCH1 081242Z 19002KT 08/04 A2998 RMK A01 T00780042  RH  078%=      5-min Rain = 0
KCH1 081243Z 18003KT 08/04 A2998 RMK A01 T00770042  RH  079%=      5-min Rain = 0
KCH1 081244Z 19003KT 08/04 A2998 RMK A01 T00750041  RH  079%=      5-min Rain = 0
KCH1 081245Z 18003KT 07/04 A2998 RMK A01 T00730041  RH  080%=      5-min Rain = 0
KCH1 081246Z 18002KT 07/04 A2998 RMK A01 T00720041  RH  081%=      5-min Rain = 0
KCH1 081247Z 18002KT 07/04 A2998 RMK A01 T00700038  RH  080%=      5-min Rain = 0
KCH1 081248Z 19002KT 07/04 A2998 RMK A01 T00690040  RH  082%=      5-min Rain = 0
KCH1 081249Z 18002KT 07/04 A2998 RMK A01 T00690042  RH  083%=      5-min Rain = 0
KCH1 081250Z 19002KT 07/05 A2998 RMK A01 T00710045  RH  083%=      5-min Rain = 0
KCH1 081251Z 19002KT 07/05 A2998 RMK A01 T00720046  RH  083%=      5-min Rain = 0
KCH1 081252Z 19002KT 07/05 A2998 RMK A01 T00740046  RH  083%=      5-min Rain = 0
KCH1 081253Z 18003KT 08/05 A2998 RMK A01 T00750046  RH  082%=      5-min Rain = 0
KCH1 081254Z 19003KT 08/05 A2998 RMK A01 T00760046  RH  081%=      5-min Rain = 0
KCH1 081255Z 20003KT 08/05 A2998 RMK A01 T00770047  RH  081%=      5-min Rain = 0
KCH1 081256Z 20003KT 08/05 A2998 RMK A01 T00780047  RH  080%=      5-min Rain = 0
KCH1 081257Z 18002KT 08/05 A2998 RMK A01 T00780046  RH  080%=      5-min Rain = 0
KCH1 081258Z 18003KT 08/05 A2998 RMK A01 T00790046  RH  080%=      5-min Rain = 0
KCH1 081259Z 18002KT 08/05 A2998 RMK A01 T00780046  RH  080%=      5-min Rain = 0
KCH1 081300Z 17002KT 08/05 A2998 RMK A01 T00780046  RH  080%=      5-min Rain = 0
KCH1 081301Z 17003KT 08/05 A2998 RMK A01 T00780046  RH  080%=      5-min Rain = 0
KCH1 081302Z 17002KT 08/05 A2998 RMK A01 T00790046  RH  080%=      5-min Rain = 0
KCH1 081303Z 19002KT 08/04 A2998 RMK A01 T00780044  RH  079%=      5-min Rain = 0
KCH1 081304Z 18002KT 08/04 A2998 RMK A01 T00770044  RH  080%=      5-min Rain = 0
KCH1 081305Z 15001KT 08/05 A2998 RMK A01 T00760045  RH  081%=      5-min Rain = 0
KCH1 081306Z 17002KT 08/05 A2998 RMK A01 T00770046  RH  081%=      5-min Rain = 0
KCH1 081307Z 21003KT 08/05 A2998 RMK A01 T00770047  RH  081%=      5-min Rain = 0
KCH1 081308Z 21006KT 08/05 A2998 RMK A01 T00800049  RH  081%=      5-min Rain = 0
KCH1 081309Z 19002KT 09/05 A2998 RMK A01 T00860050  RH  078%=      5-min Rain = 0
KCH1 081310Z 18002KT 09/05 A2998 RMK A01 T00870048  RH  076%=      5-min Rain = 0
KCH1 081311Z 19002KT 09/05 A2998 RMK A01 T00860045  RH  075%=      5-min Rain = 0
KCH1 081312Z 17002KT 09/05 A2998 RMK A01 T00850046  RH  077%=      5-min Rain = 0
KCH1 081313Z 17003KT 08/05 A2998 RMK A01 T00840045  RH  077%=      5-min Rain = 0
KCH1 081314Z 17003KT 08/05 A2998 RMK A01 T00830046  RH  077%=      5-min Rain = 0
KCH1 081315Z 17003KT 08/05 A2998 RMK A01 T00830046  RH  078%=      5-min Rain = 0
KCH1 081316Z 17002KT 08/05 A2998 RMK A01 T00840046  RH  077%=      5-min Rain = 0
KCH1 081317Z 17002KT 08/04 A2998 RMK A01 T00820042  RH  076%=      5-min Rain = 0
KCH1 081318Z 17002KT 08/04 A2998 RMK A01 T00790042  RH  077%=      5-min Rain = 0
KCH1 081319Z 18003KT 08/05 A2998 RMK A01 T00790045  RH  079%=      5-min Rain = 0
KCH1 081320Z 19003KT 08/05 A2998 RMK A01 T00790045  RH  079%=      5-min Rain = 0
KCH1 081321Z 19003KT 08/05 A2998 RMK A01 T00790045  RH  079%=      5-min Rain = 0
KCH1 081322Z 20004KT 08/05 A2998 RMK A01 T00790045  RH  079%=      5-min Rain = 0
KCH1 081323Z 20004KT 08/05 A2998 RMK A01 T00790045  RH  079%=      5-min Rain = 0
KCH1 081324Z 20004KT 08/05 A2998 RMK A01 T00800046  RH  079%=      5-min Rain = 0
KCH1 081325Z 20005KT 08/05 A2998 RMK A01 T00800046  RH  079%=      5-min Rain = 0
KCH1 081326Z 20005KT 08/05 A2998 RMK A01 T00810047  RH  079%=      5-min Rain = 0
KCH1 081327Z 20005KT 08/05 A2998 RMK A01 T00820048  RH  079%=      5-min Rain = 0
KCH1 081328Z 20005KT 08/05 A2998 RMK A01 T00830048  RH  079%=      5-min Rain = 0
KCH1 081329Z 20005KT 08/05 A2998 RMK A01 T00840048  RH  078%=      5-min Rain = 0
KCH1 081330Z 19005KT 08/05 A2998 RMK A01 T00840048  RH  078%=      5-min Rain = 0
KCH1 081331Z 19004KT 08/05 A2998 RMK A01 T00840048  RH  078%=      5-min Rain = 0
KCH1 081332Z 20004KT 08/05 A2998 RMK A01 T00840048  RH  078%=      5-min Rain = 0
KCH1 081333Z 20004KT 08/05 A2998 RMK A01 T00840048  RH  078%=      5-min Rain = 0
KCH1 081334Z 19004KT 08/05 A2998 RMK A01 T00840048  RH  078%=      5-min Rain = 0
KCH1 081335Z 19004KT 09/05 A2998 RMK A01 T00850050  RH  078%=      5-min Rain = 0
KCH1 081336Z 19004KT 09/05 A2998 RMK A01 T00860050  RH  078%=      5-min Rain = 0
KCH1 081337Z 19005KT 09/05 A2998 RMK A01 T00870051  RH  078%=      5-min Rain = 0
KCH1 081338Z 19005KT 09/05 A2998 RMK A01 T00890051  RH  077%=      5-min Rain = 0
KCH1 081339Z 19005KT 09/05 A2998 RMK A01 T00900051  RH  077%=      5-min Rain = 0
KCH1 081340Z 19005KT 09/05 A2998 RMK A01 T00910052  RH  076%=      5-min Rain = 0
KCH1 081341Z 19005KT 09/05 A2998 RMK A01 T00930052  RH  076%=      5-min Rain = 0
KCH1 081342Z 19005KT 09/05 A2998 RMK A01 T00940053  RH  075%=      5-min Rain = 0
KCH1 081343Z 19005KT 10/05 A2998 RMK A01 T00960053  RH  075%=      5-min Rain = 0
KCH1 081344Z 18005KT 10/05 A2998 RMK A01 T00970053  RH  074%=      5-min Rain = 0
KCH1 081345Z 18005KT 10/05 A2998 RMK A01 T00970053  RH  074%=      5-min Rain = 0
KCH1 081346Z 19005KT 10/05 A2998 RMK A01 T00970053  RH  074%=      5-min Rain = 0
KCH1 081347Z 19005KT 10/05 A2999 RMK A01 T00970053  RH  074%=      5-min Rain = 0
KCH1 081348Z 19005KT 10/05 A2999 RMK A01 T00980053  RH  074%=      5-min Rain = 0
KCH1 081349Z 19005KT 10/05 A2999 RMK A01 T00990054  RH  074%=      5-min Rain = 0
KCH1 081350Z 19005KT 10/05 A2999 RMK A01 T00990054  RH  073%=      5-min Rain = 0
KCH1 081351Z 19005KT 10/05 A2999 RMK A01 T00990054  RH  073%=      5-min Rain = 0
KCH1 081352Z 19005KT 10/06 A2999 RMK A01 T01010055  RH  073%=      5-min Rain = 0
KCH1 081353Z 19005KT 10/06 A2999 RMK A01 T01010055  RH  073%=      5-min Rain = 0
KCH1 081354Z 19005KT 10/06 A2999 RMK A01 T01010055  RH  073%=      5-min Rain = 0
KCH1 081355Z 19005KT 10/06 A2999 RMK A01 T01020055  RH  073%=      5-min Rain = 0
KCH1 081356Z 20004KT 10/06 A2999 RMK A01 T01020056  RH  073%=      5-min Rain = 0
KCH1 081357Z 20004KT 10/06 A2999 RMK A01 T01020056  RH  073%=      5-min Rain = 0
KCH1 081358Z 20004KT 10/06 A2999 RMK A01 T01020055  RH  073%=      5-min Rain = 0
KCH1 081359Z 19004KT 10/06 A2999 RMK A01 T01030056  RH  073%=      5-min Rain = 0
KCH1 081400Z 21004KT 10/06 A2999 RMK A01 T01030056  RH  073%=      5-min Rain = 0
KCH1 081401Z 20003KT 10/06 A2999 RMK A01 T01030056  RH  073%=      5-min Rain = 0
KCH1 081402Z 22004KT 10/06 A2999 RMK A01 T01030056  RH  073%=      5-min Rain = 0
KCH1 081403Z 22004KT 10/06 A2999 RMK A01 T01030056  RH  073%=      5-min Rain = 0
KCH1 081404Z 23003KT 10/06 A2999 RMK A01 T01040056  RH  072%=      5-min Rain = 0
KCH1 081405Z 23003KT 11/06 A2999 RMK A01 T01050056  RH  072%=      5-min Rain = 0
KCH1 081406Z 22003KT 11/06 A2999 RMK A01 T01050056  RH  072%=      5-min Rain = 0
KCH1 081407Z 24003KT 10/06 A2999 RMK A01 T01040055  RH  072%=      5-min Rain = 0
KCH1 081408Z 23004KT 10/06 A2999 RMK A01 T01040055  RH  072%=      5-min Rain = 0
KCH1 081409Z 23004KT 10/06 A2999 RMK A01 T01040056  RH  072%=      5-min Rain = 0
KCH1 081410Z 22003KT 11/06 A2999 RMK A01 T01050056  RH  072%=      5-min Rain = 0
KCH1 081411Z 23003KT 11/06 A2999 RMK A01 T01060055  RH  071%=      5-min Rain = 0
KCH1 081412Z 23003KT 11/06 A2999 RMK A01 T01060055  RH  071%=      5-min Rain = 0
KCH1 081413Z 22003KT 11/06 A2999 RMK A01 T01060055  RH  071%=      5-min Rain = 0
KCH1 081414Z 21003KT 11/06 A2999 RMK A01 T01060055  RH  071%=      5-min Rain = 0
KCH1 081415Z 22003KT 11/06 A2999 RMK A01 T01060056  RH  071%=      5-min Rain = 0
KCH1 081416Z 23005KT 11/06 A2999 RMK A01 T01060056  RH  071%=      5-min Rain = 0
KCH1 081417Z 22004KT 11/06 A2999 RMK A01 T01080057  RH  071%=      5-min Rain = 0
KCH1 081418Z 22003KT 11/06 A2999 RMK A01 T01100059  RH  071%=      5-min Rain = 0
KCH1 081419Z 22003KT 11/06 A2999 RMK A01 T01100059  RH  070%=      5-min Rain = 0
KCH1 081420Z 23003KT 11/06 A2999 RMK A01 T01110058  RH  070%=      5-min Rain = 0
KCH1 081421Z 22003KT 11/06 A2999 RMK A01 T01110058  RH  070%=      5-min Rain = 0
KCH1 081422Z 21002KT 11/06 A2999 RMK A01 T01110059  RH  070%=      5-min Rain = 0
KCH1 081423Z 21003KT 11/06 A2999 RMK A01 T01110059  RH  070%=      5-min Rain = 0
KCH1 081424Z 21003KT 11/06 A2999 RMK A01 T01120059  RH  070%=      5-min Rain = 0
KCH1 081425Z 22003KT 11/06 A2999 RMK A01 T01110058  RH  069%=      5-min Rain = 0
KCH1 081426Z 21002KT 11/06 A2999 RMK A01 T01110058  RH  070%=      5-min Rain = 0
KCH1 081427Z 21003KT 11/06 A2999 RMK A01 T01120060  RH  070%=      5-min Rain = 0
KCH1 081428Z 21003KT 11/06 A2999 RMK A01 T01120060  RH  070%=      5-min Rain = 0
KCH1 081429Z 21003KT 11/06 A2999 RMK A01 T01120060  RH  070%=      5-min Rain = 0
KCH1 081430Z 21003KT 11/06 A2999 RMK A01 T01110059  RH  070%=      5-min Rain = 0
KCH1 081431Z 21003KT 11/06 A2999 RMK A01 T01110059  RH  070%=      5-min Rain = 0
KCH1 081432Z 20003KT 11/06 A2999 RMK A01 T01110060  RH  071%=      5-min Rain = 0
KCH1 081433Z 20004KT 11/06 A2999 RMK A01 T01110060  RH  071%=      5-min Rain = 0
KCH1 081434Z 20004KT 11/06 A2999 RMK A01 T01110060  RH  071%=      5-min Rain = 0
KCH1 081435Z 21004KT 11/06 A2999 RMK A01 T01110061  RH  071%=      5-min Rain = 0
KCH1 081436Z 21003KT 11/06 A2998 RMK A01 T01120061  RH  071%=      5-min Rain = 0
KCH1 081437Z 21003KT 11/06 A2998 RMK A01 T01130062  RH  071%=      5-min Rain = 0
KCH1 081438Z 21002KT 11/06 A2998 RMK A01 T01130062  RH  071%=      5-min Rain = 0
KCH1 081439Z 22002KT 11/06 A2998 RMK A01 T01140062  RH  070%=      5-min Rain = 0
KCH1 081440Z 22002KT 12/06 A2998 RMK A01 T01150062  RH  070%=      5-min Rain = 0
KCH1 081441Z 23002KT 12/06 A2998 RMK A01 T01160062  RH  069%=      5-min Rain = 0
KCH1 081442Z 23002KT 12/06 A2998 RMK A01 T01160062  RH  069%=      5-min Rain = 0
KCH1 081443Z 23002KT 12/06 A2998 RMK A01 T01170062  RH  069%=      5-min Rain = 0
KCH1 081444Z 23002KT 12/06 A2998 RMK A01 T01170063  RH  069%=      5-min Rain = 0
KCH1 081445Z 22002KT 12/06 A2998 RMK A01 T01180063  RH  069%=      5-min Rain = 0
KCH1 081446Z 22002KT 12/06 A2998 RMK A01 T01180063  RH  069%=      5-min Rain = 0
KCH1 081447Z 23002KT 12/06 A2998 RMK A01 T01180063  RH  069%=      5-min Rain = 0
KCH1 081448Z 23002KT 12/06 A2998 RMK A01 T01190063  RH  068%=      5-min Rain = 0
KCH1 081449Z 23003KT 12/06 A2998 RMK A01 T01200064  RH  069%=      5-min Rain = 0
KCH1 081450Z 23003KT 12/06 A2998 RMK A01 T01200064  RH  068%=      5-min Rain = 0
KCH1 081451Z 23004KT 12/06 A2998 RMK A01 T01210063  RH  068%=      5-min Rain = 0
KCH1 081452Z 22004KT 12/06 A2998 RMK A01 T01210063  RH  067%=      5-min Rain = 0
KCH1 081453Z 23006KT 12/06 A2998 RMK A01 T01210063  RH  067%=      5-min Rain = 0
KCH1 081454Z 22004KT 12/06 A2998 RMK A01 T01220063  RH  067%=      5-min Rain = 0
KCH1 081455Z 22005KT 12/06 A2998 RMK A01 T01230062  RH  066%=      5-min Rain = 0
KCH1 081456Z 22004KT 12/06 A2998 RMK A01 T01240063  RH  066%=      5-min Rain = 0
KCH1 081457Z 22003KT 12/06 A2998 RMK A01 T01240064  RH  067%=      5-min Rain = 0
KCH1 081458Z 22003KT 13/06 A2998 RMK A01 T01250064  RH  066%=      5-min Rain = 0
KCH1 081459Z 24002KT 13/06 A2998 RMK A01 T01250064  RH  066%=      5-min Rain = 0
KCH1 081500Z 24002KT 13/07 A2998 RMK A01 T01260065  RH  066%=      5-min Rain = 0
KCH1 081501Z 24002KT 13/06 A2999 RMK A01 T01270064  RH  066%=      5-min Rain = 0
KCH1 081502Z 25002KT 13/07 A2998 RMK A01 T01280065  RH  066%=      5-min Rain = 0
KCH1 081503Z 24002KT 13/07 A2998 RMK A01 T01280065  RH  065%=      5-min Rain = 0
KCH1 081504Z 24002KT 13/06 A2998 RMK A01 T01290064  RH  065%=      5-min Rain = 0
KCH1 081505Z 24002KT 13/06 A2998 RMK A01 T01300063  RH  064%=      5-min Rain = 0
KCH1 081506Z 23002KT 13/06 A2998 RMK A01 T01300063  RH  064%=      5-min Rain = 0
KCH1 081507Z 22002KT 13/06 A2998 RMK A01 T01300064  RH  064%=      5-min Rain = 0
KCH1 081508Z 22001KT 13/06 A2998 RMK A01 T01300063  RH  064%=      5-min Rain = 0
KCH1 081509Z 23001KT 13/06 A2998 RMK A01 T01300064  RH  064%=      5-min Rain = 0
KCH1 081510Z 25001KT 13/06 A2998 RMK A01 T01310064  RH  064%=      5-min Rain = 0
KCH1 081511Z 23002KT 13/06 A2998 RMK A01 T01310064  RH  064%=      5-min Rain = 0
KCH1 081512Z 24001KT 13/06 A2998 RMK A01 T01320064  RH  063%=      5-min Rain = 0
KCH1 081513Z 00000KT 13/06 A2997 RMK A01 T01320064  RH  063%=      5-min Rain = 0
KCH1 081514Z 00000KT 13/06 A2997 RMK A01 T01320064  RH  063%=      5-min Rain = 0
KCH1 081515Z 13001KT 13/07 A2997 RMK A01 T01340067  RH  064%=      5-min Rain = 0
KCH1 081516Z 15002KT 14/07 A2998 RMK A01 T01360069  RH  064%=      5-min Rain = 0
KCH1 081517Z 18002KT 14/07 A2997 RMK A01 T01380070  RH  063%=      5-min Rain = 0
KCH1 081518Z 17002KT 14/07 A2997 RMK A01 T01390068  RH  062%=      5-min Rain = 0
KCH1 081519Z 18002KT 14/07 A2997 RMK A01 T01400067  RH  061%=      5-min Rain = 0
KCH1 081520Z 16002KT 14/07 A2997 RMK A01 T01390068  RH  062%=      5-min Rain = 0
KCH1 081521Z 16003KT 14/07 A2997 RMK A01 T01390070  RH  063%=      5-min Rain = 0
KCH1 081522Z 17002KT 14/07 A2997 RMK A01 T01400071  RH  063%=      5-min Rain = 0
KCH1 081523Z 20003KT 14/07 A2997 RMK A01 T01410070  RH  062%=      5-min Rain = 0
KCH1 081524Z 17003KT 14/07 A2997 RMK A01 T01410069  RH  062%=      5-min Rain = 0
KCH1 081525Z 18004KT 14/07 A2997 RMK A01 T01410070  RH  062%=      5-min Rain = 0
KCH1 081526Z 18004KT 14/07 A2997 RMK A01 T01410070  RH  062%=      5-min Rain = 0
KCH1 081527Z 18003KT 14/07 A2997 RMK A01 T01400069  RH  062%=      5-min Rain = 0
KCH1 081528Z 18003KT 14/07 A2997 RMK A01 T01400070  RH  062%=      5-min Rain = 0
KCH1 081529Z 19004KT 14/07 A2997 RMK A01 T01400069  RH  062%=      5-min Rain = 0
KCH1 081530Z 22004KT 14/07 A2997 RMK A01 T01410071  RH  063%=      5-min Rain = 0
KCH1 081531Z 21002KT 14/07 A2997 RMK A01 T01420069  RH  062%=      5-min Rain = 0
KCH1 081532Z 19002KT 14/07 A2997 RMK A01 T01420070  RH  062%=      5-min Rain = 0
KCH1 081533Z 18003KT 14/07 A2998 RMK A01 T01430071  RH  062%=      5-min Rain = 0
KCH1 081534Z 23002KT 15/07 A2998 RMK A01 T01450071  RH  061%=      5-min Rain = 0
KCH1 081535Z 21002KT 15/07 A2998 RMK A01 T01450071  RH  061%=      5-min Rain = 0
KCH1 081536Z 21004KT 15/07 A2997 RMK A01 T01450069  RH  060%=      5-min Rain = 0
KCH1 081537Z 20003KT 15/07 A2997 RMK A01 T01450068  RH  060%=      5-min Rain = 0
KCH1 081538Z 17003KT 15/07 A2997 RMK A01 T01450069  RH  061%=      5-min Rain = 0
KCH1 081539Z 20003KT 15/07 A2998 RMK A01 T01450069  RH  060%=      5-min Rain = 0
KCH1 081540Z 20003KT 15/07 A2998 RMK A01 T01460069  RH  060%=      5-min Rain = 0
KCH1 081541Z 19003KT 15/07 A2998 RMK A01 T01470069  RH  060%=      5-min Rain = 0
KCH1 081542Z 20002KT 15/07 A2998 RMK A01 T01470068  RH  059%=      5-min Rain = 0
KCH1 081543Z 20003KT 15/07 A2997 RMK A01 T01480069  RH  059%=      5-min Rain = 0
KCH1 081544Z 19003KT 15/07 A2997 RMK A01 T01500071  RH  059%=      5-min Rain = 0
KCH1 081545Z 20005KT 15/07 A2997 RMK A01 T01520069  RH  058%=      5-min Rain = 0
KCH1 081546Z 23005KT 15/07 A2998 RMK A01 T01520070  RH  058%=      5-min Rain = 0
KCH1 081547Z 21002KT 15/07 A2998 RMK A01 T01520068  RH  057%=      5-min Rain = 0
KCH1 081548Z 19002KT 15/07 A2998 RMK A01 T01520070  RH  058%=      5-min Rain = 0
KCH1 081549Z 22002KT 15/07 A2998 RMK A01 T01540070  RH  058%=      5-min Rain = 0
KCH1 081550Z 21001KT 15/07 A2998 RMK A01 T01540071  RH  058%=      5-min Rain = 0
KCH1 081551Z 20001KT 16/07 A2998 RMK A01 T01560071  RH  057%=      5-min Rain = 0
KCH1 081552Z 27001KT 16/07 A2998 RMK A01 T01570072  RH  057%=      5-min Rain = 0
KCH1 081553Z 24002KT 16/07 A2998 RMK A01 T01590072  RH  056%=      5-min Rain = 0
KCH1 081554Z 22005KT 16/07 A2998 RMK A01 T01580071  RH  056%=      5-min Rain = 0
KCH1 081555Z 21005KT 16/07 A2997 RMK A01 T01570071  RH  056%=      5-min Rain = 0
KCH1 081556Z 22006KT 16/07 A2997 RMK A01 T01560071  RH  057%=      5-min Rain = 0
KCH1 081557Z 20004KT 16/07 A2997 RMK A01 T01560073  RH  058%=      5-min Rain = 0
KCH1 081558Z 22005KT 16/07 A2997 RMK A01 T01580073  RH  057%=      5-min Rain = 0
KCH1 081559Z 22005KT 16/07 A2997 RMK A01 T01580072  RH  057%=      5-min Rain = 0
KCH1 081600Z 23005KT 16/07 A2997 RMK A01 T01590072  RH  056%=      5-min Rain = 0
KCH1 081601Z 23006KT 16/07 A2997 RMK A01 T01590072  RH  057%=      5-min Rain = 0
KCH1 081602Z 23004KT 16/07 A2997 RMK A01 T01590072  RH  056%=      5-min Rain = 0
KCH1 081603Z 23005KT 16/07 A2997 RMK A01 T01590073  RH  056%=      5-min Rain = 0
KCH1 081604Z 21007KT 16/07 A2997 RMK A01 T01600073  RH  056%=      5-min Rain = 0
KCH1 081605Z 23005KT 16/07 A2997 RMK A01 T01610072  RH  056%=      5-min Rain = 0
KCH1 081606Z 22006G11KT 16/07 A2997 RMK A01 T01620073  RH  056%=      5-min Rain = 0
KCH1 081607Z 23004KT 16/07 A2997 RMK A01 T01620073  RH  055%=      5-min Rain = 0
KCH1 081608Z 23007KT 16/07 A2997 RMK A01 T01620074  RH  056%=      5-min Rain = 0
KCH1 081609Z 23006KT 16/07 A2997 RMK A01 T01630072  RH  055%=      5-min Rain = 0
KCH1 081610Z 21007KT 16/07 A2997 RMK A01 T01630071  RH  054%=      5-min Rain = 0
KCH1 081611Z 22008KT 16/07 A2997 RMK A01 T01630071  RH  054%=      5-min Rain = 0
KCH1 081612Z 22009G14KT 16/07 A2997 RMK A01 T01640071  RH  054%=      5-min Rain = 0
KCH1 081613Z 23007KT 16/07 A2997 RMK A01 T01640071  RH  054%=      5-min Rain = 0
KCH1 081614Z 23006KT 16/07 A2997 RMK A01 T01640071  RH  054%=      5-min Rain = 0
KCH1 081615Z 22005G10KT 17/07 A2997 RMK A01 T01650073  RH  054%=      5-min Rain = 0
KCH1 081616Z 24005KT 17/07 A2997 RMK A01 T01660073  RH  054%=      5-min Rain = 0
KCH1 081617Z 24006KT 17/07 A2997 RMK A01 T01680072  RH  053%=      5-min Rain = 0
KCH1 081618Z 23006G12KT 17/07 A2997 RMK A01 T01680073  RH  053%=      5-min Rain = 0
KCH1 081619Z 23009KT 17/07 A2997 RMK A01 T01700072  RH  053%=      5-min Rain = 0
KCH1 081620Z 23007KT 17/07 A2997 RMK A01 T01700072  RH  052%=      5-min Rain = 0
KCH1 081621Z 23006KT 17/07 A2997 RMK A01 T01700071  RH  052%=      5-min Rain = 0
KCH1 081622Z 22012KT 17/07 A2997 RMK A01 T01710072  RH  052%=      5-min Rain = 0
KCH1 081623Z 22010KT 17/07 A2997 RMK A01 T01710070  RH  051%=      5-min Rain = 0
KCH1 081624Z 22010KT 17/07 A2996 RMK A01 T01710071  RH  052%=      5-min Rain = 0
KCH1 081625Z 23011KT 17/07 A2996 RMK A01 T01710070  RH  051%=      5-min Rain = 0
KCH1 081626Z 23010KT 17/07 A2996 RMK A01 T01720070  RH  051%=      5-min Rain = 0
KCH1 081627Z 23007KT 17/07 A2996 RMK A01 T01720071  RH  052%=      5-min Rain = 0
KCH1 081628Z 22008G13KT 17/07 A2996 RMK A01 T01730071  RH  051%=      5-min Rain = 0
KCH1 081629Z 22008KT 17/07 A2996 RMK A01 T01740072  RH  051%=      5-min Rain = 0
KCH1 081630Z 22009KT 17/07 A2996 RMK A01 T01740071  RH  051%=      5-min Rain = 0
KCH1 081631Z 22010KT 17/07 A2996 RMK A01 T01740070  RH  050%=      5-min Rain = 0
KCH1 081632Z 24010KT 17/07 A2996 RMK A01 T01740070  RH  050%=      5-min Rain = 0
KCH1 081633Z 24010KT 17/07 A2996 RMK A01 T01730069  RH  050%=      5-min Rain = 0
KCH1 081634Z 24010KT 17/07 A2996 RMK A01 T01740069  RH  050%=      5-min Rain = 0
KCH1 081635Z 23010KT 17/07 A2996 RMK A01 T01730069  RH  050%=      5-min Rain = 0
KCH1 081636Z 25009G14KT 17/07 A2996 RMK A01 T01740069  RH  050%=      5-min Rain = 0
KCH1 081637Z 24006KT 17/07 A2996 RMK A01 T01740071  RH  051%=      5-min Rain = 0
KCH1 081638Z 23006KT 18/07 A2996 RMK A01 T01750072  RH  051%=      5-min Rain = 0
KCH1 081639Z 23007KT 18/07 A2996 RMK A01 T01770073  RH  051%=      5-min Rain = 0
KCH1 081640Z 24010KT 18/07 A2996 RMK A01 T01780072  RH  050%=      5-min Rain = 0
KCH1 081641Z 24009KT 18/07 A2996 RMK A01 T01780071  RH  050%=      5-min Rain = 0
KCH1 081642Z 23006KT 18/07 A2996 RMK A01 T01780071  RH  049%=      5-min Rain = 0
KCH1 081643Z 23006KT 18/07 A2996 RMK A01 T01790073  RH  050%=      5-min Rain = 0
KCH1 081644Z 23005KT 18/07 A2996 RMK A01 T01800073  RH  050%=      5-min Rain = 0
KCH1 081645Z 23007KT 18/07 A2996 RMK A01 T01820074  RH  049%=      5-min Rain = 0
KCH1 081646Z 24011KT 18/07 A2996 RMK A01 T01820071  RH  048%=      5-min Rain = 0
KCH1 081647Z 23011KT 18/07 A2996 RMK A01 T01810070  RH  048%=      5-min Rain = 0
KCH1 081648Z 22010KT 18/07 A2996 RMK A01 T01810070  RH  049%=      5-min Rain = 0
KCH1 081649Z 23010KT 18/07 A2996 RMK A01 T01800071  RH  049%=      5-min Rain = 0
KCH1 081650Z 23010KT 18/07 A2996 RMK A01 T01800071  RH  049%=      5-min Rain = 0
KCH1 081651Z 23012KT 18/07 A2996 RMK A01 T01800070  RH  048%=      5-min Rain = 0
KCH1 081652Z 23009KT 18/07 A2996 RMK A01 T01810069  RH  048%=      5-min Rain = 0
KCH1 081653Z 22012KT 18/07 A2996 RMK A01 T01810070  RH  048%=      5-min Rain = 0
KCH1 081654Z 22008KT 18/07 A2996 RMK A01 T01830071  RH  048%=      5-min Rain = 0
KCH1 081655Z 23009KT 18/07 A2996 RMK A01 T01840072  RH  048%=      5-min Rain = 0
KCH1 081656Z 23010KT 19/07 A2996 RMK A01 T01850072  RH  048%=      5-min Rain = 0
KCH1 081657Z 22009KT 19/07 A2996 RMK A01 T01850071  RH  047%=      5-min Rain = 0
KCH1 081658Z 23012KT 19/07 A2995 RMK A01 T01860071  RH  047%=      5-min Rain = 0
KCH1 081659Z 22009KT 19/07 A2995 RMK A01 T01860071  RH  047%=      5-min Rain = 0
KCH1 081700Z 22009KT 19/07 A2995 RMK A01 T01860071  RH  047%=      5-min Rain = 0
KCH1 081701Z 22009KT 19/07 A2995 RMK A01 T01870072  RH  047%=      5-min Rain = 0
KCH1 081702Z 22011KT 19/07 A2995 RMK A01 T01880071  RH  047%=      5-min Rain = 0
KCH1 081703Z 23010KT 19/07 A2995 RMK A01 T01880070  RH  046%=      5-min Rain = 0
KCH1 081704Z 22007KT 19/07 A2995 RMK A01 T01880071  RH  047%=      5-min Rain = 0
KCH1 081705Z 22009KT 19/07 A2995 RMK A01 T01900072  RH  046%=      5-min Rain = 0
KCH1 081706Z 21010KT 19/07 A2995 RMK A01 T01900071  RH  046%=      5-min Rain = 0
KCH1 081707Z 22009KT 19/07 A2995 RMK A01 T01910072  RH  046%=      5-min Rain = 0
KCH1 081708Z 23010KT 19/07 A2995 RMK A01 T01920072  RH  046%=      5-min Rain = 0
KCH1 081709Z 23007KT 19/07 A2995 RMK A01 T01920072  RH  045%=      5-min Rain = 0
KCH1 081710Z 22006KT 19/07 A2995 RMK A01 T01930072  RH  046%=      5-min Rain = 0
KCH1 081711Z 23006KT 19/08 A2995 RMK A01 T01940075  RH  046%=      5-min Rain = 0
KCH1 081712Z 23008KT 20/08 A2995 RMK A01 T01960075  RH  045%=      5-min Rain = 0
KCH1 081713Z 23007KT 20/07 A2995 RMK A01 T01970074  RH  045%=      5-min Rain = 0
KCH1 081714Z 23007KT 20/08 A2995 RMK A01 T01990075  RH  045%=      5-min Rain = 0
KCH1 081715Z 23009KT 20/07 A2995 RMK A01 T02000073  RH  044%=      5-min Rain = 0
KCH1 081716Z 23008KT 20/07 A2995 RMK A01 T02000073  RH  044%=      5-min Rain = 0
KCH1 081717Z 23008KT 20/07 A2995 RMK A01 T02010072  RH  043%=      5-min Rain = 0
KCH1 081718Z 23010KT 20/07 A2995 RMK A01 T02010072  RH  043%=      5-min Rain = 0
KCH1 081719Z 24011KT 20/07 A2994 RMK A01 T02020070  RH  043%=      5-min Rain = 0
KCH1 081720Z 23012KT 20/07 A2994 RMK A01 T02010069  RH  042%=      5-min Rain = 0
KCH1 081721Z 23013KT 20/07 A2994 RMK A01 T02010068  RH  042%=      5-min Rain = 0
KCH1 081722Z 23009KT 20/07 A2994 RMK A01 T02000069  RH  043%=      5-min Rain = 0
KCH1 081723Z 23008KT 20/07 A2995 RMK A01 T02010070  RH  043%=      5-min Rain = 0
KCH1 081724Z 24007KT 20/07 A2994 RMK A01 T02020073  RH  043%=      5-min Rain = 0
KCH1 081725Z 24006KT 20/07 A2994 RMK A01 T02040072  RH  042%=      5-min Rain = 0
KCH1 081726Z 23006KT 21/08 A2994 RMK A01 T02060075  RH  043%=      5-min Rain = 0
KCH1 081727Z 22007KT 21/08 A2994 RMK A01 T02070075  RH  042%=      5-min Rain = 0
KCH1 081728Z 23010KT 21/07 A2994 RMK A01 T02080074  RH  042%=      5-min Rain = 0
KCH1 081729Z 23009KT 21/07 A2994 RMK A01 T02090073  RH  041%=      5-min Rain = 0
KCH1 081730Z 23007KT 21/07 A2994 RMK A01 T02090074  RH  042%=      5-min Rain = 0
KCH1 081731Z 23008KT 21/07 A2994 RMK A01 T02090074  RH  042%=      5-min Rain = 0
KCH1 081732Z 23010KT 21/07 A2994 RMK A01 T02100073  RH  041%=      5-min Rain = 0
KCH1 081733Z 24008G14KT 21/07 A2994 RMK A01 T02100072  RH  041%=      5-min Rain = 0
KCH1 081734Z 26012KT 21/07 A2994 RMK A01 T02100070  RH  040%=      5-min Rain = 0
KCH1 081735Z 26011G17KT 21/07 A2994 RMK A01 T02110068  RH  039%=      5-min Rain = 0
KCH1 081736Z 24012KT 21/07 A2993 RMK A01 T02110068  RH  039%=      5-min Rain = 0
KCH1 081737Z 25013KT 21/07 A2993 RMK A01 T02120066  RH  039%=      5-min Rain = 0
KCH1 081738Z 24009KT 21/07 A2993 RMK A01 T02120067  RH  039%=      5-min Rain = 0
KCH1 081739Z 26010G15KT 21/07 A2993 RMK A01 T02130069  RH  039%=      5-min Rain = 0
KCH1 081740Z 25007KT 21/07 A2993 RMK A01 T02140069  RH  039%=      5-min Rain = 0
KCH1 081741Z 24009KT 22/07 A2993 RMK A01 T02160070  RH  039%=      5-min Rain = 0
KCH1 081742Z 24013KT 22/07 A2993 RMK A01 T02170069  RH  038%=      5-min Rain = 0
KCH1 081743Z 25011KT 22/07 A2993 RMK A01 T02160069  RH  039%=      5-min Rain = 0
KCH1 081744Z 24009KT 22/07 A2993 RMK A01 T02160069  RH  039%=      5-min Rain = 0
KCH1 081745Z 24007KT 22/07 A2993 RMK A01 T02170071  RH  039%=      5-min Rain = 0
KCH1 081746Z 24009KT 22/07 A2993 RMK A01 T02180071  RH  039%=      5-min Rain = 0
KCH1 081747Z 24008KT 22/07 A2993 RMK A01 T02190070  RH  038%=      5-min Rain = 0
KCH1 081748Z 24009KT 22/07 A2993 RMK A01 T02190071  RH  039%=      5-min Rain = 0
KCH1 081749Z 24008KT 22/07 A2993 RMK A01 T02180071  RH  039%=      5-min Rain = 0
KCH1 081750Z 24009KT 22/07 A2993 RMK A01 T02190072  RH  039%=      5-min Rain = 0
KCH1 081751Z 24009KT 22/07 A2993 RMK A01 T02200072  RH  038%=      5-min Rain = 0
KCH1 081752Z 23009KT 22/07 A2992 RMK A01 T02190072  RH  039%=      5-min Rain = 0
KCH1 081753Z 23010KT 22/07 A2992 RMK A01 T02190072  RH  039%=      5-min Rain = 0
KCH1 081754Z 23010KT 22/07 A2992 RMK A01 T02180072  RH  039%=      5-min Rain = 0
KCH1 081755Z 23009KT 22/07 A2992 RMK A01 T02170071  RH  039%=      5-min Rain = 0
KCH1 081756Z 23009KT 22/07 A2992 RMK A01 T02170072  RH  039%=      5-min Rain = 0
KCH1 081757Z 23008KT 22/07 A2992 RMK A01 T02180072  RH  039%=      5-min Rain = 0
KCH1 081758Z 24006KT 22/07 A2992 RMK A01 T02190073  RH  039%=      5-min Rain = 0
KCH1 081759Z 23007KT 22/08 A2992 RMK A01 T02220076  RH  039%=      5-min Rain = 0
KCH1 081800Z 24008KT 22/07 A2992 RMK A01 T02240074  RH  038%=      5-min Rain = 0
KCH1 081801Z 24010KT 22/07 A2992 RMK A01 T02240072  RH  038%=      5-min Rain = 0
KCH1 081802Z 24011KT 22/07 A2992 RMK A01 T02240070  RH  037%=      5-min Rain = 0
KCH1 081803Z 25011KT 22/07 A2991 RMK A01 T02230070  RH  037%=      5-min Rain = 0
KCH1 081804Z 24009KT 22/07 A2991 RMK A01 T02230070  RH  037%=      5-min Rain = 0
KCH1 081805Z 23006G12KT 22/07 A2991 RMK A01 T02230070  RH  037%=      5-min Rain = 0
KCH1 081806Z 24011KT 23/07 A2991 RMK A01 T02250071  RH  037%=      5-min Rain = 0
KCH1 081807Z 23010KT 23/07 A2991 RMK A01 T02270071  RH  037%=      5-min Rain = 0
KCH1 081808Z 24013KT 23/07 A2991 RMK A01 T02280070  RH  036%=      5-min Rain = 0
KCH1 081809Z 23012KT 23/07 A2991 RMK A01 T02270069  RH  036%=      5-min Rain = 0
KCH1 081810Z 25009KT 23/07 A2991 RMK A01 T02260070  RH  037%=      5-min Rain = 0
KCH1 081811Z 23012KT 23/07 A2991 RMK A01 T02270071  RH  037%=      5-min Rain = 0
KCH1 081812Z 24013KT 23/07 A2991 RMK A01 T02280071  RH  036%=      5-min Rain = 0
KCH1 081813Z 25015KT 23/07 A2991 RMK A01 T02270070  RH  036%=      5-min Rain = 0
KCH1 081814Z 25010KT 23/07 A2991 RMK A01 T02260069  RH  036%=      5-min Rain = 0
KCH1 081815Z 24010KT 23/07 A2991 RMK A01 T02260071  RH  037%=      5-min Rain = 0
KCH1 081816Z 25010KT 23/07 A2991 RMK A01 T02260071  RH  037%=      5-min Rain = 0
KCH1 081817Z 24012KT 23/07 A2991 RMK A01 T02260071  RH  037%=      5-min Rain = 0
KCH1 081818Z 25015KT 23/07 A2991 RMK A01 T02280072  RH  037%=      5-min Rain = 0
KCH1 081819Z 26012KT 23/07 A2991 RMK A01 T02280070  RH  036%=      5-min Rain = 0
KCH1 081820Z 25011KT 23/07 A2991 RMK A01 T02290072  RH  036%=      5-min Rain = 0
KCH1 081821Z 25010KT 23/07 A2991 RMK A01 T02310072  RH  036%=      5-min Rain = 0
KCH1 081822Z 25009KT 23/07 A2991 RMK A01 T02310073  RH  036%=      5-min Rain = 0
KCH1 081823Z 25011KT 23/07 A2991 RMK A01 T02330072  RH  035%=      5-min Rain = 0
KCH1 081824Z 24008KT 23/07 A2991 RMK A01 T02330072  RH  035%=      5-min Rain = 0
KCH1 081825Z 23012G18KT 23/07 A299 RMK A01 T02330072  RH  036%=      5-min Rain = 0
KCH1 081826Z 24011KT 23/07 A2991 RMK A01 T02330071  RH  035%=      5-min Rain = 0
KCH1 081827Z 24009KT 23/07 A2991 RMK A01 T02330072  RH  035%=      5-min Rain = 0
KCH1 081828Z 27011KT 23/07 A299 RMK A01 T02340071  RH  035%=      5-min Rain = 0
KCH1 081829Z 27009KT 24/07 A299 RMK A01 T02350071  RH  035%=      5-min Rain = 0
KCH1 081830Z 27008G13KT 24/07 A299 RMK A01 T02350074  RH  036%=      5-min Rain = 0
KCH1 081831Z 26010KT 24/07 A299 RMK A01 T02380073  RH  035%=      5-min Rain = 0
KCH1 081832Z 26008KT 24/07 A299 RMK A01 T02370073  RH  035%=      5-min Rain = 0
KCH1 081833Z 25012KT 24/07 A299 RMK A01 T02380072  RH  034%=      5-min Rain = 0
KCH1 081834Z 24009KT 24/07 A299 RMK A01 T02360071  RH  034%=      5-min Rain = 0
KCH1 081835Z 25010KT 24/07 A299 RMK A01 T02360070  RH  034%=      5-min Rain = 0
KCH1 081836Z 26011G16KT 24/07 A299 RMK A01 T02350068  RH  034%=      5-min Rain = 0
KCH1 081837Z 26009KT 24/07 A299 RMK A01 T02350071  RH  035%=      5-min Rain = 0
KCH1 081838Z 26011KT 24/07 A299 RMK A01 T02350069  RH  034%=      5-min Rain = 0
KCH1 081839Z 26010KT 24/07 A299 RMK A01 T02350071  RH  035%=      5-min Rain = 0
KCH1 081840Z 26007KT 24/07 A299 RMK A01 T02360071  RH  035%=      5-min Rain = 0
KCH1 081841Z 27011G20KT 24/07 A299 RMK A01 T02370071  RH  034%=      5-min Rain = 0
KCH1 081842Z 27012KT 24/07 A299 RMK A01 T02370069  RH  034%=      5-min Rain = 0
KCH1 081843Z 27011KT 24/07 A299 RMK A01 T02380071  RH  034%=      5-min Rain = 0
KCH1 081844Z 25008KT 24/07 A299 RMK A01 T02400073  RH  034%=      5-min Rain = 0
KCH1 081845Z 26010KT 24/07 A2989 RMK A01 T02410072  RH  034%=      5-min Rain = 0
KCH1 081846Z 24011G17KT 24/07 A2989 RMK A01 T02400072  RH  034%=      5-min Rain = 0
KCH1 081847Z 24009KT 24/07 A2989 RMK A01 T02390070  RH  034%=      5-min Rain = 0
KCH1 081848Z 25011G17KT 24/07 A2989 RMK A01 T02370069  RH  034%=      5-min Rain = 0
KCH1 081849Z 25014KT 24/07 A2989 RMK A01 T02370069  RH  034%=      5-min Rain = 0
KCH1 081850Z 25010KT 24/07 A2989 RMK A01 T02370068  RH  034%=      5-min Rain = 0
KCH1 081851Z 24013KT 24/07 A2989 RMK A01 T02390069  RH  033%=      5-min Rain = 0
KCH1 081852Z 25008KT 24/07 A2989 RMK A01 T02400070  RH  033%=      5-min Rain = 0
KCH1 081853Z 27015KT 24/07 A2989 RMK A01 T02420070  RH  033%=      5-min Rain = 0
KCH1 081854Z 26014G20KT 24/07 A2988 RMK A01 T02420069  RH  033%=      5-min Rain = 0
KCH1 081855Z 26014KT 24/07 A2988 RMK A01 T02400068  RH  033%=      5-min Rain = 0
KCH1 081856Z 27010G15KT 24/07 A2988 RMK A01 T02390069  RH  033%=      5-min Rain = 0
KCH1 081857Z 27011KT 24/07 A2988 RMK A01 T02400070  RH  034%=      5-min Rain = 0
KCH1 081858Z 26010KT 24/07 A2988 RMK A01 T02400070  RH  034%=      5-min Rain = 0
KCH1 081859Z 25012KT 24/07 A2988 RMK A01 T02400070  RH  033%=      5-min Rain = 0
KCH1 081900Z 25009KT 24/07 A2988 RMK A01 T02410071  RH  034%=      5-min Rain = 0
KCH1 081901Z 24009KT 24/07 A2988 RMK A01 T02410071  RH  034%=      5-min Rain = 0
KCH1 081902Z 25011G16KT 24/07 A2988 RMK A01 T02440072  RH  033%=      5-min Rain = 0
KCH1 081903Z 25015KT 24/07 A2988 RMK A01 T02440069  RH  033%=      5-min Rain = 0
KCH1 081904Z 25011KT 24/07 A2988 RMK A01 T02430070  RH  033%=      5-min Rain = 0
KCH1 081905Z 24013KT 24/07 A2988 RMK A01 T02430069  RH  033%=      5-min Rain = 0
KCH1 081906Z 25012KT 24/07 A2987 RMK A01 T02430068  RH  032%=      5-min Rain = 0
KCH1 081907Z 25012KT 24/07 A2987 RMK A01 T02430068  RH  033%=      5-min Rain = 0
KCH1 081908Z 25009KT 24/07 A2987 RMK A01 T02440067  RH  032%=      5-min Rain = 0
KCH1 081909Z 24009KT 24/07 A2987 RMK A01 T02430068  RH  033%=      5-min Rain = 0
KCH1 081910Z 24011KT 25/07 A2987 RMK A01 T02450069  RH  032%=      5-min Rain = 0
KCH1 081911Z 25016KT 25/07 A2987 RMK A01 T02450068  RH  032%=      5-min Rain = 0
KCH1 081912Z 26013KT 25/07 A2987 RMK A01 T02450068  RH  032%=      5-min Rain = 0
KCH1 081913Z 26013KT 25/07 A2987 RMK A01 T02450069  RH  032%=      5-min Rain = 0
KCH1 081914Z 26011KT 25/07 A2987 RMK A01 T02460069  RH  032%=      5-min Rain = 0
KCH1 081915Z 26012KT 25/07 A2987 RMK A01 T02460069  RH  032%=      5-min Rain = 0
KCH1 081916Z 26010KT 25/07 A2987 RMK A01 T02470070  RH  032%=      5-min Rain = 0
KCH1 081917Z 26013G18KT 25/07 A2987 RMK A01 T02480070  RH  032%=      5-min Rain = 0
KCH1 081918Z 26014KT 25/07 A2987 RMK A01 T02490068  RH  031%=      5-min Rain = 0
KCH1 081919Z 25010KT 25/07 A2987 RMK A01 T02490068  RH  031%=      5-min Rain = 0
KCH1 081920Z 25011KT 25/07 A2987 RMK A01 T02490069  RH  031%=      5-min Rain = 0
KCH1 081921Z 25014KT 25/07 A2987 RMK A01 T02510068  RH  031%=      5-min Rain = 0
KCH1 081922Z 25015KT 25/07 A2987 RMK A01 T02510068  RH  031%=      5-min Rain = 0
KCH1 081923Z 26013KT 25/07 A2987 RMK A01 T02500068  RH  031%=      5-min Rain = 0
KCH1 081924Z 25010KT 25/07 A2987 RMK A01 T02500069  RH  031%=      5-min Rain = 0
KCH1 081925Z 25010KT 25/07 A2987 RMK A01 T02500068  RH  031%=      5-min Rain = 0
KCH1 081926Z 26009KT 25/07 A2987 RMK A01 T02500067  RH  031%=      5-min Rain = 0
KCH1 081927Z 25009KT 25/07 A2987 RMK A01 T02500069  RH  031%=      5-min Rain = 0
KCH1 081928Z 24012KT 25/07 A2987 RMK A01 T02500069  RH  031%=      5-min Rain = 0
KCH1 081929Z 23012KT 25/07 A2986 RMK A01 T02500068  RH  031%=      5-min Rain = 0
KCH1 081930Z 23013KT 25/07 A2986 RMK A01 T02490068  RH  031%=      5-min Rain = 0
KCH1 081931Z 23012KT 25/07 A2986 RMK A01 T02480067  RH  031%=      5-min Rain = 0
KCH1 081932Z 23010KT 25/07 A2986 RMK A01 T02460067  RH  032%=      5-min Rain = 0
KCH1 081933Z 24008KT 25/07 A2986 RMK A01 T02460068  RH  032%=      5-min Rain = 0
KCH1 081934Z 25008KT 25/07 A2986 RMK A01 T02470069  RH  032%=      5-min Rain = 0
KCH1 081935Z 24007KT 25/07 A2986 RMK A01 T02500070  RH  032%=      5-min Rain = 0
KCH1 081936Z 23009KT 25/07 A2986 RMK A01 T02520071  RH  032%=      5-min Rain = 0
KCH1 081937Z 25009KT 25/07 A2986 RMK A01 T02540072  RH  031%=      5-min Rain = 0
KCH1 081938Z 24007KT 26/07 A2985 RMK A01 T02550070  RH  031%=      5-min Rain = 0
KCH1 081939Z 23010KT 26/07 A2985 RMK A01 T02550071  RH  031%=      5-min Rain = 0
KCH1 081940Z 24010KT 26/07 A2985 RMK A01 T02550070  RH  031%=      5-min Rain = 0
KCH1 081941Z 24011KT 25/07 A2985 RMK A01 T02540069  RH  031%=      5-min Rain = 0
KCH1 081942Z 24008KT 25/07 A2985 RMK A01 T02540069  RH  031%=      5-min Rain = 0
KCH1 081943Z 24010KT 25/07 A2985 RMK A01 T02540069  RH  031%=      5-min Rain = 0
KCH1 081944Z 25011G16KT 26/07 A2985 RMK A01 T02550068  RH  030%=      5-min Rain = 0
KCH1 081945Z 23012KT 26/07 A2985 RMK A01 T02550069  RH  030%=      5-min Rain = 0
KCH1 081946Z 22012KT 26/07 A2985 RMK A01 T02550068  RH  030%=      5-min Rain = 0
KCH1 081947Z 23011KT 26/07 A2985 RMK A01 T02550067  RH  030%=      5-min Rain = 0
KCH1 081948Z 23010KT 26/07 A2985 RMK A01 T02550068  RH  030%=      5-min Rain = 0
KCH1 081949Z 25009KT 26/07 A2985 RMK A01 T02560069  RH  030%=      5-min Rain = 0
KCH1 081950Z 24009KT 26/07 A2985 RMK A01 T02590070  RH  030%=      5-min Rain = 0
KCH1 081951Z 24013KT 26/07 A2985 RMK A01 T02610069  RH  029%=      5-min Rain = 0
KCH1 081952Z 23010KT 26/07 A2985 RMK A01 T02610068  RH  029%=      5-min Rain = 0
KCH1 081953Z 23012G18KT 26/07 A2985 RMK A01 T02600068  RH  029%=      5-min Rain = 0
KCH1 081954Z 23017KT 26/07 A2984 RMK A01 T02600065  RH  029%=      5-min Rain = 0
KCH1 081955Z 25012G20KT 26/06 A2985 RMK A01 T02600064  RH  029%=      5-min Rain = 0
KCH1 081956Z 26018KT 26/06 A2984 RMK A01 T02590062  RH  028%=      5-min Rain = 0
KCH1 081957Z 26016G21KT 26/06 A2984 RMK A01 T02590062  RH  028%=      5-min Rain = 0
KCH1 081958Z 25014G20KT 26/06 A2985 RMK A01 T02590063  RH  029%=      5-min Rain = 0
KCH1 081959Z 24016KT 26/06 A2984 RMK A01 T02590062  RH  028%=      5-min Rain = 0
KCH1 082000Z 24014G20KT 26/06 A2984 RMK A01 T02590062  RH  028%=      5-min Rain = 0
KCH1 082001Z 24011KT 26/06 A2984 RMK A01 T02600063  RH  029%=      5-min Rain = 0
KCH1 082002Z 23012G19KT 26/06 A2984 RMK A01 T02600063  RH  028%=      5-min Rain = 0
KCH1 082003Z 25015G20KT 26/06 A2984 RMK A01 T02590062  RH  028%=      5-min Rain = 0
KCH1 082004Z 25015G20KT 26/06 A2984 RMK A01 T02580062  RH  028%=      5-min Rain = 0
KCH1 082005Z 25018KT 26/06 A2984 RMK A01 T02580063  RH  029%=      5-min Rain = 0
KCH1 082006Z 26018KT 26/06 A2984 RMK A01 T02580062  RH  029%=      5-min Rain = 0
KCH1 082007Z 25013G20KT 26/06 A2984 RMK A01 T02580062  RH  029%=      5-min Rain = 0
KCH1 082008Z 25015KT 26/06 A2984 RMK A01 T02570063  RH  029%=      5-min Rain = 0
KCH1 082009Z 24012KT 26/06 A2984 RMK A01 T02580063  RH  029%=      5-min Rain = 0
KCH1 082010Z 23012KT 26/06 A2984 RMK A01 T02590063  RH  029%=      5-min Rain = 0
KCH1 082011Z 23009KT 26/07 A2983 RMK A01 T02600065  RH  029%=      5-min Rain = 0
KCH1 082012Z 26011KT 26/06 A2983 RMK A01 T02610064  RH  028%=      5-min Rain = 0
KCH1 082013Z 25010KT 26/06 A2983 RMK A01 T02610062  RH  028%=      5-min Rain = 0
KCH1 082014Z 24008G13KT 26/07 A2983 RMK A01 T02620065  RH  028%=      5-min Rain = 0
KCH1 082015Z 23013G20KT 26/07 A2983 RMK A01 T02640066  RH  028%=      5-min Rain = 0
KCH1 082016Z 23014KT 26/06 A2983 RMK A01 T02640064  RH  028%=      5-min Rain = 0
KCH1 082017Z 24013KT 26/06 A2983 RMK A01 T02630064  RH  028%=      5-min Rain = 0
KCH1 082018Z 25010KT 26/06 A2983 RMK A01 T02620063  RH  028%=      5-min Rain = 0
KCH1 082019Z 25012KT 26/06 A2983 RMK A01 T02630064  RH  028%=      5-min Rain = 0
KCH1 082020Z 24011G17KT 27/06 A2983 RMK A01 T02650064  RH  028%=      5-min Rain = 0
KCH1 082021Z 25009G14KT 27/06 A2983 RMK A01 T02650064  RH  028%=      5-min Rain = 0
KCH1 082022Z 26010G15KT 27/07 A2983 RMK A01 T02650066  RH  028%=      5-min Rain = 0
KCH1 082023Z 25012KT 27/07 A2983 RMK A01 T02650065  RH  028%=      5-min Rain = 0
KCH1 082024Z 22007G12KT 27/07 A2983 RMK A01 T02650066  RH  028%=      5-min Rain = 0
KCH1 082025Z 20009KT 27/07 A2983 RMK A01 T02660068  RH  028%=      5-min Rain = 0
KCH1 082026Z 21009KT 27/07 A2983 RMK A01 T02650070  RH  029%=      5-min Rain = 0
KCH1 082027Z 21011KT 26/07 A2983 RMK A01 T02640071  RH  029%=      5-min Rain = 0
KCH1 082028Z 23010G16KT 26/07 A2983 RMK A01 T02640069  RH  029%=      5-min Rain = 0
KCH1 082029Z 22007KT 26/07 A2982 RMK A01 T02640070  RH  029%=      5-min Rain = 0
KCH1 082030Z 22011KT 26/07 A2982 RMK A01 T02640069  RH  029%=      5-min Rain = 0
KCH1 082031Z 23011KT 26/07 A2982 RMK A01 T02640068  RH  029%=      5-min Rain = 0
KCH1 082032Z 22010KT 26/07 A2983 RMK A01 T02640069  RH  029%=      5-min Rain = 0
KCH1 082033Z 22011KT 26/07 A2983 RMK A01 T02640069  RH  029%=      5-min Rain = 0
KCH1 082034Z 23010KT 26/07 A2983 RMK A01 T02640066  RH  028%=      5-min Rain = 0
KCH1 082035Z 24012KT 26/07 A2983 RMK A01 T02640068  RH  029%=      5-min Rain = 0
KCH1 082036Z 25008G13KT 27/07 A2983 RMK A01 T02650068  RH  029%=      5-min Rain = 0
KCH1 082037Z 25014G21KT 27/06 A2983 RMK A01 T02660064  RH  028%=      5-min Rain = 0
KCH1 082038Z 25018G26KT 27/06 A2983 RMK A01 T02650062  RH  027%=      5-min Rain = 0
KCH1 082039Z 25017G22KT 26/06 A2983 RMK A01 T02630060  RH  027%=      5-min Rain = 0
KCH1 082040Z 25016KT 26/06 A2983 RMK A01 T02610059  RH  027%=      5-min Rain = 0
KCH1 082041Z 27012KT 26/06 A2983 RMK A01 T02600060  RH  028%=      5-min Rain = 0
KCH1 082042Z 26018G25KT 26/06 A2982 RMK A01 T02600060  RH  028%=      5-min Rain = 0
KCH1 082043Z 25018KT 26/06 A2982 RMK A01 T02590058  RH  028%=      5-min Rain = 0
KCH1 082044Z 25015KT 26/06 A2982 RMK A01 T02580058  RH  028%=      5-min Rain = 0
KCH1 082045Z 25018KT 26/06 A2982 RMK A01 T02580058  RH  028%=      5-min Rain = 0
KCH1 082046Z 25016G22KT 26/06 A2982 RMK A01 T02580057  RH  028%=      5-min Rain = 0
KCH1 082047Z 25013KT 26/06 A2983 RMK A01 T02590058  RH  028%=      5-min Rain = 0
KCH1 082048Z 26017KT 26/06 A2982 RMK A01 T02610059  RH  027%=      5-min Rain = 0
KCH1 082049Z 26012KT 26/06 A2983 RMK A01 T02620059  RH  027%=      5-min Rain = 0
KCH1 082050Z 26015G20KT 26/06 A2983 RMK A01 T02620060  RH  027%=      5-min Rain = 0
KCH1 082051Z 25013KT 26/06 A2982 RMK A01 T02620060  RH  027%=      5-min Rain = 0
KCH1 082052Z 26012G18KT 26/06 A2983 RMK A01 T02620060  RH  027%=      5-min Rain = 0
KCH1 082053Z 26014G19KT 26/06 A2983 RMK A01 T02620061  RH  028%=      5-min Rain = 0
KCH1 082054Z 26017G24KT 26/06 A2983 RMK A01 T02620061  RH  028%=      5-min Rain = 0
KCH1 082055Z 26015G24KT 26/06 A2983 RMK A01 T02620060  RH  028%=      5-min Rain = 0
KCH1 082056Z 27012G17KT 26/06 A2983 RMK A01 T02610061  RH  028%=      5-min Rain = 0
KCH1 082057Z 27013KT 26/06 A2983 RMK A01 T02610061  RH  028%=      5-min Rain = 0
KCH1 082058Z 27011KT 26/06 A2983 RMK A01 T02610062  RH  028%=      5-min Rain = 0
KCH1 082059Z 27010KT 26/06 A2983 RMK A01 T02610063  RH  028%=      5-min Rain = 0
KCH1 082100Z 28016G21KT 26/06 A2983 RMK A01 T02610063  RH  028%=      5-min Rain = 0
KCH1 082101Z 27015G20KT 26/06 A2983 RMK A01 T02610062  RH  028%=      5-min Rain = 0
KCH1 082102Z 26013G18KT 26/06 A2983 RMK A01 T02600064  RH  028%=      5-min Rain = 0
KCH1 082103Z 27013KT 26/06 A2983 RMK A01 T02600063  RH  028%=      5-min Rain = 0
KCH1 082104Z 27010KT 26/06 A2983 RMK A01 T02600063  RH  028%=      5-min Rain = 0
KCH1 082105Z 27010KT 26/06 A2983 RMK A01 T02600064  RH  029%=      5-min Rain = 0
KCH1 082106Z 26008KT 26/06 A2983 RMK A01 T02600064  RH  028%=      5-min Rain = 0
KCH1 082107Z 26011KT 26/06 A2983 RMK A01 T02610064  RH  028%=      5-min Rain = 0
KCH1 082108Z 26009KT 26/06 A2983 RMK A01 T02610064  RH  028%=      5-min Rain = 0
KCH1 082109Z 27008G13KT 26/07 A2983 RMK A01 T02610066  RH  029%=      5-min Rain = 0
KCH1 082110Z 27007KT 26/07 A2983 RMK A01 T02620066  RH  029%=      5-min Rain = 0
KCH1 082111Z 26009G14KT 26/07 A2983 RMK A01 T02620066  RH  029%=      5-min Rain = 0
KCH1 082112Z 26010G15KT 26/06 A2983 RMK A01 T02630064  RH  028%=      5-min Rain = 0
KCH1 082113Z 26010KT 26/06 A2983 RMK A01 T02620064  RH  028%=      5-min Rain = 0
KCH1 082114Z 26009KT 26/06 A2983 RMK A01 T02620063  RH  028%=      5-min Rain = 0
KCH1 082115Z 27008G13KT 26/06 A2983 RMK A01 T02620064  RH  028%=      5-min Rain = 0
KCH1 082116Z 26008KT 26/07 A2983 RMK A01 T02620065  RH  028%=      5-min Rain = 0
KCH1 082117Z 26011KT 26/06 A2983 RMK A01 T02630064  RH  028%=      5-min Rain = 0
KCH1 082118Z 25009G14KT 26/06 A2983 RMK A01 T02630063  RH  028%=      5-min Rain = 0
KCH1 082119Z 25010KT 26/06 A2983 RMK A01 T02640064  RH  028%=      5-min Rain = 0
KCH1 082120Z 26014KT 26/06 A2983 RMK A01 T02630062  RH  028%=      5-min Rain = 0
KCH1 082121Z 25014KT 26/06 A2983 RMK A01 T02640061  RH  027%=      5-min Rain = 0
KCH1 082122Z 27011KT 26/06 A2983 RMK A01 T02630061  RH  027%=      5-min Rain = 0
KCH1 082123Z 26010KT 26/06 A2983 RMK A01 T02630062  RH  028%=      5-min Rain = 0
KCH1 082124Z 26012KT 26/06 A2982 RMK A01 T02620061  RH  028%=      5-min Rain = 0
KCH1 082125Z 25010KT 26/06 A2982 RMK A01 T02620061  RH  028%=      5-min Rain = 0
KCH1 082126Z 26012KT 26/06 A2982 RMK A01 T02620060  RH  028%=      5-min Rain = 0
KCH1 082127Z 26010KT 26/06 A2982 RMK A01 T02620059  RH  027%=      5-min Rain = 0
KCH1 082128Z 25007KT 26/06 A2983 RMK A01 T02620060  RH  028%=      5-min Rain = 0
KCH1 082129Z 26010KT 26/06 A2982 RMK A01 T02620061  RH  028%=      5-min Rain = 0
KCH1 082130Z 25010KT 26/06 A2982 RMK A01 T02620060  RH  028%=      5-min Rain = 0
KCH1 082131Z 25015KT 26/06 A2982 RMK A01 T02620058  RH  027%=      5-min Rain = 0
KCH1 082132Z 25014G21KT 26/06 A2982 RMK A01 T02620057  RH  027%=      5-min Rain = 0
KCH1 082133Z 25011KT 26/06 A2982 RMK A01 T02620056  RH  027%=      5-min Rain = 0
KCH1 082134Z 25012KT 26/06 A2982 RMK A01 T02620056  RH  027%=      5-min Rain = 0
KCH1 082135Z 25011KT 26/06 A2982 RMK A01 T02620057  RH  027%=      5-min Rain = 0
KCH1 082136Z 26008KT 26/06 A2982 RMK A01 T02620058  RH  027%=      5-min Rain = 0
KCH1 082137Z 26009KT 26/06 A2982 RMK A01 T02620059  RH  027%=      5-min Rain = 0
KCH1 082138Z 25009KT 26/06 A2982 RMK A01 T02610058  RH  027%=      5-min Rain = 0
KCH1 082139Z 26009KT 26/06 A2982 RMK A01 T02610058  RH  027%=      5-min Rain = 0
KCH1 082140Z 26007KT 26/06 A2982 RMK A01 T02610061  RH  028%=      5-min Rain = 0
KCH1 082141Z 26008KT 26/06 A2982 RMK A01 T02600060  RH  028%=      5-min Rain = 0
KCH1 082142Z 25010KT 26/06 A2982 RMK A01 T02600059  RH  028%=      5-min Rain = 0
KCH1 082143Z 26007KT 26/06 A2982 RMK A01 T02600060  RH  028%=      5-min Rain = 0
KCH1 082144Z 26013KT 26/06 A2982 RMK A01 T02600059  RH  028%=      5-min Rain = 0
KCH1 082145Z 25010KT 26/06 A2982 RMK A01 T02600057  RH  027%=      5-min Rain = 0
KCH1 082146Z 25009KT 26/06 A2982 RMK A01 T02600057  RH  027%=      5-min Rain = 0
KCH1 082147Z 26011KT 26/06 A2982 RMK A01 T02600057  RH  027%=      5-min Rain = 0
KCH1 082148Z 25012KT 26/06 A2982 RMK A01 T02600056  RH  027%=      5-min Rain = 0
KCH1 082149Z 25010KT 26/06 A2982 RMK A01 T02610056  RH  027%=      5-min Rain = 0
KCH1 082150Z 26011KT 26/06 A2982 RMK A01 T02610057  RH  027%=      5-min Rain = 0
KCH1 082151Z 26012KT 26/06 A2982 RMK A01 T02620056  RH  027%=      5-min Rain = 0
KCH1 082152Z 25010KT 26/06 A2982 RMK A01 T02620057  RH  027%=      5-min Rain = 0
KCH1 082153Z 25009KT 26/06 A2982 RMK A01 T02620057  RH  027%=      5-min Rain = 0
KCH1 082154Z 25009KT 26/06 A2982 RMK A01 T02620058  RH  027%=      5-min Rain = 0
KCH1 082155Z 25010G15KT 26/06 A2982 RMK A01 T02620058  RH  027%=      5-min Rain = 0
KCH1 082156Z 24009KT 26/06 A2982 RMK A01 T02620057  RH  027%=      5-min Rain = 0
KCH1 082157Z 25009G14KT 26/06 A2982 RMK A01 T02620058  RH  027%=      5-min Rain = 0
KCH1 082158Z 25008G14KT 26/06 A2982 RMK A01 T02620060  RH  027%=      5-min Rain = 0
KCH1 082159Z 25011KT 26/06 A2981 RMK A01 T02620057  RH  027%=      5-min Rain = 0
KCH1 082200Z 24012G18KT 26/06 A2981 RMK A01 T02620057  RH  027%=      5-min Rain = 0
KCH1 082201Z 25013G18KT 26/06 A2981 RMK A01 T02620055  RH  027%=      5-min Rain = 0
KCH1 082202Z 25012KT 26/06 A2981 RMK A01 T02620055  RH  027%=      5-min Rain = 0
KCH1 082203Z 25012KT 26/06 A2981 RMK A01 T02620057  RH  027%=      5-min Rain = 0
KCH1 082204Z 24014KT 26/06 A2981 RMK A01 T02610056  RH  027%=      5-min Rain = 0
KCH1 082205Z 24011KT 26/06 A2982 RMK A01 T02610055  RH  027%=      5-min Rain = 0
KCH1 082206Z 23010KT 26/06 A2982 RMK A01 T02610056  RH  027%=      5-min Rain = 0
KCH1 082207Z 24009KT 26/06 A2982 RMK A01 T02610056  RH  027%=      5-min Rain = 0
KCH1 082208Z 23013KT 26/06 A2982 RMK A01 T02610056  RH  027%=      5-min Rain = 0
KCH1 082209Z 24013KT 26/06 A2981 RMK A01 T02610056  RH  027%=      5-min Rain = 0
KCH1 082210Z 24016KT 26/06 A2981 RMK A01 T02610056  RH  027%=      5-min Rain = 0
KCH1 082211Z 25014KT 26/06 A2981 RMK A01 T02620056  RH  027%=      5-min Rain = 0
KCH1 082212Z 25010G15KT 26/06 A2981 RMK A01 T02620056  RH  027%=      5-min Rain = 0
KCH1 082213Z 25014G19KT 26/06 A2981 RMK A01 T02620056  RH  027%=      5-min Rain = 0
KCH1 082214Z 24011KT 26/06 A2981 RMK A01 T02610055  RH  027%=      5-min Rain = 0
KCH1 082215Z 24009KT 26/06 A2981 RMK A01 T02600057  RH  027%=      5-min Rain = 0
KCH1 082216Z 24012G19KT 26/06 A2981 RMK A01 T02600057  RH  027%=      5-min Rain = 0
KCH1 082217Z 24010KT 26/06 A2981 RMK A01 T02600056  RH  027%=      5-min Rain = 0
KCH1 082218Z 24010KT 26/06 A2981 RMK A01 T02590056  RH  027%=      5-min Rain = 0
KCH1 082219Z 25010KT 26/06 A2982 RMK A01 T02590056  RH  027%=      5-min Rain = 0
KCH1 082220Z 24009G15KT 26/06 A2982 RMK A01 T02580057  RH  027%=      5-min Rain = 0
KCH1 082221Z 24016KT 26/06 A2982 RMK A01 T02580056  RH  027%=      5-min Rain = 0
KCH1 082222Z 24011G16KT 26/06 A2982 RMK A01 T02590055  RH  027%=      5-min Rain = 0
KCH1 082223Z 25012KT 26/06 A2982 RMK A01 T02580055  RH  027%=      5-min Rain = 0
KCH1 082224Z 25013KT 26/06 A2982 RMK A01 T02580055  RH  027%=      5-min Rain = 0
KCH1 082225Z 25013KT 26/06 A2982 RMK A01 T02580055  RH  027%=      5-min Rain = 0
KCH1 082226Z 26013KT 26/06 A2982 RMK A01 T02580055  RH  027%=      5-min Rain = 0
KCH1 082227Z 26012KT 26/06 A2982 RMK A01 T02580055  RH  027%=      5-min Rain = 0
KCH1 082228Z 25009KT 26/06 A2982 RMK A01 T02590055  RH  027%=      5-min Rain = 0
KCH1 082229Z 25008KT 26/06 A2982 RMK A01 T02590056  RH  027%=      5-min Rain = 0
KCH1 082230Z 25010G15KT 26/06 A2982 RMK A01 T02590057  RH  027%=      5-min Rain = 0
KCH1 082231Z 25011KT 26/06 A2982 RMK A01 T02590055  RH  027%=      5-min Rain = 0
KCH1 082232Z 25010KT 26/06 A2982 RMK A01 T02590056  RH  027%=      5-min Rain = 0
KCH1 082233Z 24010KT 26/06 A2982 RMK A01 T02590056  RH  027%=      5-min Rain = 0
KCH1 082234Z 23007KT 26/06 A2982 RMK A01 T02590056  RH  027%=      5-min Rain = 0
KCH1 082235Z 24008KT 26/06 A2982 RMK A01 T02590057  RH  027%=      5-min Rain = 0
KCH1 082236Z 24012G17KT 26/06 A2982 RMK A01 T02580057  RH  027%=      5-min Rain = 0
KCH1 082237Z 23011KT 26/06 A2982 RMK A01 T02580056  RH  027%=      5-min Rain = 0
KCH1 082238Z 24008KT 26/06 A2982 RMK A01 T02570056  RH  028%=      5-min Rain = 0
KCH1 082239Z 24010KT 26/06 A2982 RMK A01 T02560057  RH  028%=      5-min Rain = 0
KCH1 082240Z 24009KT 26/06 A2982 RMK A01 T02560057  RH  028%=      5-min Rain = 0
KCH1 082241Z 23011KT 26/06 A2982 RMK A01 T02550056  RH  028%=      5-min Rain = 0
KCH1 082242Z 24011KT 26/06 A2982 RMK A01 T02550055  RH  028%=      5-min Rain = 0
KCH1 082243Z 25011KT 26/06 A2982 RMK A01 T02550055  RH  028%=      5-min Rain = 0
KCH1 082244Z 25011KT 25/05 A2982 RMK A01 T02540054  RH  028%=      5-min Rain = 0
KCH1 082245Z 25009KT 25/05 A2982 RMK A01 T02540054  RH  028%=      5-min Rain = 0
KCH1 082246Z 25010KT 25/05 A2982 RMK A01 T02540054  RH  028%=      5-min Rain = 0
KCH1 082247Z 24009KT 25/06 A2982 RMK A01 T02540055  RH  028%=      5-min Rain = 0
KCH1 082248Z 25008KT 25/05 A2982 RMK A01 T02530054  RH  028%=      5-min Rain = 0
KCH1 082249Z 25009KT 25/05 A2982 RMK A01 T02530054  RH  028%=      5-min Rain = 0
KCH1 082250Z 25011KT 25/05 A2982 RMK A01 T02520054  RH  028%=      5-min Rain = 0
KCH1 082251Z 25010KT 25/05 A2982 RMK A01 T02520054  RH  028%=      5-min Rain = 0
KCH1 082252Z 24008KT 25/05 A2982 RMK A01 T02520054  RH  028%=      5-min Rain = 0
KCH1 082253Z 24007KT 25/05 A2982 RMK A01 T02520054  RH  028%=      5-min Rain = 0
KCH1 082254Z 24007KT 25/05 A2982 RMK A01 T02510054  RH  028%=      5-min Rain = 0
KCH1 082255Z 24009KT 25/05 A2982 RMK A01 T02510054  RH  028%=      5-min Rain = 0
KCH1 082256Z 24009KT 25/05 A2982 RMK A01 T02500053  RH  028%=      5-min Rain = 0
KCH1 082257Z 24008KT 25/05 A2982 RMK A01 T02510054  RH  028%=      5-min Rain = 0
KCH1 082258Z 24006KT 25/05 A2982 RMK A01 T02500054  RH  028%=      5-min Rain = 0
KCH1 082259Z 25006KT 25/05 A2982 RMK A01 T02500054  RH  028%=      5-min Rain = 0
KCH1 082300Z 24006KT 25/05 A2982 RMK A01 T02490054  RH  029%=      5-min Rain = 0
KCH1 082301Z 24006KT 25/05 A2982 RMK A01 T02480054  RH  029%=      5-min Rain = 0
KCH1 082302Z 24007KT 25/05 A2982 RMK A01 T02470054  RH  029%=      5-min Rain = 0
KCH1 082303Z 24006KT 25/05 A2982 RMK A01 T02470054  RH  029%=      5-min Rain = 0
KCH1 082304Z 24006KT 25/05 A2982 RMK A01 T02470054  RH  029%=      5-min Rain = 0
KCH1 082305Z 24005KT 25/05 A2982 RMK A01 T02460054  RH  029%=      5-min Rain = 0
KCH1 082306Z 23006KT 25/05 A2982 RMK A01 T02460054  RH  029%=      5-min Rain = 0
KCH1 082307Z 24008KT 25/05 A2982 RMK A01 T02460054  RH  029%=      5-min Rain = 0
KCH1 082308Z 23007KT 25/05 A2982 RMK A01 T02450053  RH  029%=      5-min Rain = 0
KCH1 082309Z 24006KT 25/05 A2982 RMK A01 T02450053  RH  029%=      5-min Rain = 0
KCH1 082310Z 24005KT 25/05 A2982 RMK A01 T02450053  RH  029%=      5-min Rain = 0
KCH1 082311Z 24006KT 24/05 A2982 RMK A01 T02440053  RH  029%=      5-min Rain = 0
KCH1 082312Z 25006KT 24/05 A2982 RMK A01 T02440054  RH  029%=      5-min Rain = 0
KCH1 082313Z 24006KT 24/05 A2982 RMK A01 T02430053  RH  029%=      5-min Rain = 0
KCH1 082314Z 24005KT 24/05 A2982 RMK A01 T02430054  RH  029%=      5-min Rain = 0
KCH1 082315Z 24006KT 24/05 A2982 RMK A01 T02420053  RH  029%=      5-min Rain = 0
KCH1 082316Z 24006KT 24/05 A2982 RMK A01 T02420053  RH  030%=      5-min Rain = 0
KCH1 082317Z 24006KT 24/05 A2981 RMK A01 T02420052  RH  029%=      5-min Rain = 0
KCH1 082318Z 24005KT 24/05 A2981 RMK A01 T02420053  RH  029%=      5-min Rain = 0
KCH1 082319Z 24005KT 24/05 A2981 RMK A01 T02420053  RH  030%=      5-min Rain = 0
KCH1 082320Z 24005KT 24/05 A2981 RMK A01 T02410053  RH  030%=      5-min Rain = 0
KCH1 082321Z 24006KT 24/05 A2981 RMK A01 T02390053  RH  030%=      5-min Rain = 0
KCH1 082322Z 24006KT 24/05 A2981 RMK A01 T02390052  RH  030%=      5-min Rain = 0
KCH1 082323Z 24005KT 24/05 A2982 RMK A01 T02390052  RH  030%=      5-min Rain = 0
KCH1 082324Z 24005KT 24/05 A2982 RMK A01 T02390052  RH  030%=      5-min Rain = 0
KCH1 082325Z 24004KT 24/05 A2981 RMK A01 T02380052  RH  030%=      5-min Rain = 0
KCH1 082326Z 24005KT 24/05 A2981 RMK A01 T02380052  RH  030%=      5-min Rain = 0
KCH1 082327Z 24005KT 24/05 A2982 RMK A01 T02380052  RH  030%=      5-min Rain = 0
KCH1 082328Z 24005KT 24/05 A2982 RMK A01 T02370052  RH  030%=      5-min Rain = 0
KCH1 082329Z 24005KT 24/05 A2982 RMK A01 T02370053  RH  030%=      5-min Rain = 0
KCH1 082330Z 25004KT 24/05 A2982 RMK A01 T02360052  RH  030%=      5-min Rain = 0
KCH1 082331Z 25004KT 24/05 A2982 RMK A01 T02350052  RH  031%=      5-min Rain = 0
KCH1 082332Z 25006KT 23/05 A2982 RMK A01 T02340052  RH  031%=      5-min Rain = 0
KCH1 082333Z 26006KT 23/05 A2982 RMK A01 T02330051  RH  031%=      5-min Rain = 0
KCH1 082334Z 25005KT 23/05 A2982 RMK A01 T02330051  RH  031%=      5-min Rain = 0
KCH1 082335Z 25005KT 23/05 A2982 RMK A01 T02330051  RH  031%=      5-min Rain = 0
KCH1 082336Z 25005KT 23/05 A2982 RMK A01 T02330051  RH  031%=      5-min Rain = 0
KCH1 082337Z 25005KT 23/05 A2982 RMK A01 T02330051  RH  031%=      5-min Rain = 0
KCH1 082338Z 25005KT 23/05 A2982 RMK A01 T02330051  RH  031%=      5-min Rain = 0
KCH1 082339Z 25004KT 23/05 A2982 RMK A01 T02330051  RH  031%=      5-min Rain = 0
KCH1 082340Z 25004KT 23/05 A2982 RMK A01 T02320051  RH  031%=      5-min Rain = 0
KCH1 082341Z 25004KT 23/05 A2982 RMK A01 T02320051  RH  031%=      5-min Rain = 0
KCH1 082342Z 25004KT 23/05 A2982 RMK A01 T02310051  RH  031%=      5-min Rain = 0
KCH1 082343Z 24004KT 23/05 A2982 RMK A01 T02310050  RH  031%=      5-min Rain = 0
KCH1 082344Z 24004KT 23/05 A2982 RMK A01 T02300050  RH  031%=      5-min Rain = 0
KCH1 082345Z 23004KT 23/05 A2982 RMK A01 T02290050  RH  031%=      5-min Rain = 0
KCH1 082346Z 23003KT 23/05 A2982 RMK A01 T02290050  RH  031%=      5-min Rain = 0
KCH1 082347Z 23004KT 23/05 A2982 RMK A01 T02280050  RH  032%=      5-min Rain = 0
KCH1 082348Z 23004KT 23/05 A2982 RMK A01 T02280050  RH  032%=      5-min Rain = 0
KCH1 082349Z 23004KT 23/05 A2982 RMK A01 T02270050  RH  032%=      5-min Rain = 0
KCH1 082350Z 23004KT 23/05 A2982 RMK A01 T02270050  RH  032%=      5-min Rain = 0
KCH1 082351Z 23004KT 23/05 A2982 RMK A01 T02270050  RH  032%=      5-min Rain = 0
KCH1 082352Z 23004KT 23/05 A2982 RMK A01 T02270050  RH  032%=      5-min Rain = 0
KCH1 082353Z 22004KT 23/05 A2982 RMK A01 T02260050  RH  032%=      5-min Rain = 0
KCH1 082354Z 22004KT 23/05 A2982 RMK A01 T02260050  RH  032%=      5-min Rain = 0
KCH1 082355Z 23004KT 23/05 A2982 RMK A01 T02250050  RH  032%=      5-min Rain = 0
KCH1 082356Z 22005KT 22/05 A2982 RMK A01 T02240050  RH  032%=      5-min Rain = 0
KCH1 082357Z 22005KT 22/05 A2982 RMK A01 T02230050  RH  032%=      5-min Rain = 0
KCH1 082358Z 22005KT 22/05 A2982 RMK A01 T02230050  RH  032%=      5-min Rain = 0
KCH1 082359Z 21005KT 22/05 A2982 RMK A01 T02230050  RH  033%=      5-min Rain = 0
KCH1 090000Z 21005KT 22/05 A2981 RMK A01 T02220050  RH  033%=      5-min Rain = 0
KCH1 090001Z 21005KT 22/05 A2982 RMK A01 T02210050  RH  033%=      5-min Rain = 0
KCH1 090002Z 21004KT 22/05 A2982 RMK A01 T02200050  RH  033%=      5-min Rain = 0
KCH1 090003Z 22005KT 22/05 A2982 RMK A01 T02200050  RH  033%=      5-min Rain = 0
KCH1 090004Z 21004KT 22/05 A2982 RMK A01 T02190050  RH  033%=      5-min Rain = 0
KCH1 090005Z 22004KT 22/05 A2982 RMK A01 T02190050  RH  033%=      5-min Rain = 0
KCH1 090006Z 23004KT 22/05 A2982 RMK A01 T02190050  RH  033%=      5-min Rain = 0
KCH1 090007Z 23004KT 22/05 A2982 RMK A01 T02180050  RH  033%=      5-min Rain = 0
KCH1 090008Z 23004KT 22/05 A2982 RMK A01 T02180050  RH  033%=      5-min Rain = 0
KCH1 090009Z 23004KT 22/05 A2982 RMK A01 T02170050  RH  034%=      5-min Rain = 0
KCH1 090010Z 23004KT 22/05 A2982 RMK A01 T02170050  RH  034%=      5-min Rain = 0
KCH1 090011Z 23004KT 22/05 A2982 RMK A01 T02160050  RH  034%=      5-min Rain = 0
KCH1 090012Z 23004KT 22/05 A2982 RMK A01 T02160050  RH  034%=      5-min Rain = 0
KCH1 090013Z 23004KT 22/05 A2981 RMK A01 T02160050  RH  034%=      5-min Rain = 0
KCH1 090014Z 23004KT 22/05 A2982 RMK A01 T02150050  RH  034%=      5-min Rain = 0
KCH1 090015Z 23004KT 22/05 A2982 RMK A01 T02150050  RH  034%=      5-min Rain = 0
KCH1 090016Z 23004KT 22/05 A2982 RMK A01 T02150050  RH  034%=      5-min Rain = 0
KCH1 090017Z 23004KT 21/05 A2982 RMK A01 T02140050  RH  034%=      5-min Rain = 0
KCH1 090018Z 23004KT 21/05 A2982 RMK A01 T02130050  RH  034%=      5-min Rain = 0
KCH1 090019Z 23004KT 21/05 A2982 RMK A01 T02120050  RH  035%=      5-min Rain = 0
KCH1 090020Z 23004KT 21/05 A2982 RMK A01 T02110051  RH  035%=      5-min Rain = 0
KCH1 090021Z 23003KT 21/05 A2982 RMK A01 T02100051  RH  035%=      5-min Rain = 0
KCH1 090022Z 22004KT 21/05 A2982 RMK A01 T02090051  RH  035%=      5-min Rain = 0
KCH1 090023Z 23004KT 21/05 A2982 RMK A01 T02080051  RH  036%=      5-min Rain = 0
KCH1 090024Z 23004KT 21/05 A2982 RMK A01 T02070051  RH  036%=      5-min Rain = 0
KCH1 090025Z 23004KT 21/05 A2982 RMK A01 T02070051  RH  036%=      5-min Rain = 0
KCH1 090026Z 24004KT 21/05 A2983 RMK A01 T02060051  RH  036%=      5-min Rain = 0
KCH1 090027Z 24004KT 21/05 A2983 RMK A01 T02050051  RH  036%=      5-min Rain = 0
KCH1 090028Z 24004KT 21/05 A2983 RMK A01 T02050051  RH  036%=      5-min Rain = 0
KCH1 090029Z 24004KT 20/05 A2983 RMK A01 T02040051  RH  037%=      5-min Rain = 0
KCH1 090030Z 24003KT 20/05 A2983 RMK A01 T02040051  RH  037%=      5-min Rain = 0
KCH1 090031Z 24003KT 20/05 A2983 RMK A01 T02030051  RH  037%=      5-min Rain = 0
KCH1 090032Z 24003KT 20/05 A2983 RMK A01 T02030051  RH  037%=      5-min Rain = 0
KCH1 090033Z 24003KT 20/05 A2983 RMK A01 T02030051  RH  037%=      5-min Rain = 0
KCH1 090034Z 23003KT 20/05 A2983 RMK A01 T02020051  RH  037%=      5-min Rain = 0
KCH1 090035Z 23003KT 20/05 A2983 RMK A01 T02020051  RH  037%=      5-min Rain = 0
KCH1 090036Z 22003KT 20/05 A2983 RMK A01 T02010051  RH  037%=      5-min Rain = 0
KCH1 090037Z 22004KT 20/05 A2983 RMK A01 T02010051  RH  037%=      5-min Rain = 0
KCH1 090038Z 22004KT 20/05 A2983 RMK A01 T02010051  RH  037%=      5-min Rain = 0
KCH1 090039Z 21004KT 20/05 A2983 RMK A01 T02010051  RH  037%=      5-min Rain = 0
KCH1 090040Z 21004KT 20/05 A2983 RMK A01 T02010051  RH  037%=      5-min Rain = 0
KCH1 090041Z 21004KT 20/05 A2982 RMK A01 T02010051  RH  037%=      5-min Rain = 0
KCH1 090042Z 21004KT 20/05 A2982 RMK A01 T02000051  RH  038%=      5-min Rain = 0
KCH1 090043Z 21005KT 20/05 A2982 RMK A01 T02000051  RH  038%=      5-min Rain = 0
KCH1 090044Z 21005KT 20/05 A2982 RMK A01 T01990051  RH  038%=      5-min Rain = 0
KCH1 090045Z 21006KT 20/05 A2982 RMK A01 T01990051  RH  038%=      5-min Rain = 0
KCH1 090046Z 21005KT 20/05 A2982 RMK A01 T02000051  RH  038%=      5-min Rain = 0
KCH1 090047Z 19004KT 20/05 A2982 RMK A01 T02000051  RH  038%=      5-min Rain = 0
KCH1 090048Z 19004KT 20/05 A2982 RMK A01 T02000052  RH  038%=      5-min Rain = 0
KCH1 090049Z 20004KT 20/05 A2982 RMK A01 T01980052  RH  038%=      5-min Rain = 0
KCH1 090050Z 21004KT 20/05 A2982 RMK A01 T01970052  RH  039%=      5-min Rain = 0
KCH1 090051Z 21003KT 20/05 A2982 RMK A01 T01960052  RH  039%=      5-min Rain = 0
KCH1 090052Z 20003KT 20/05 A2982 RMK A01 T01960052  RH  039%=      5-min Rain = 0
KCH1 090053Z 21003KT 20/05 A2982 RMK A01 T01960052  RH  039%=      5-min Rain = 0
KCH1 090054Z 19003KT 20/05 A2982 RMK A01 T01950052  RH  039%=      5-min Rain = 0
KCH1 090055Z 17005KT 19/05 A2982 RMK A01 T01940052  RH  039%=      5-min Rain = 0
KCH1 090056Z 17005KT 19/05 A2982 RMK A01 T01930052  RH  040%=      5-min Rain = 0
KCH1 090057Z 17005KT 19/05 A2982 RMK A01 T01910052  RH  040%=      5-min Rain = 0
KCH1 090058Z 18004KT 19/05 A2982 RMK A01 T01880053  RH  041%=      5-min Rain = 0
KCH1 090059Z 18004KT 19/05 A2982 RMK A01 T01860053  RH  041%=      5-min Rain = 0
KCH1 090100Z 18005KT 19/05 A2982 RMK A01 T01850052  RH  041%=      5-min Rain = 0
KCH1 090101Z 19005KT 19/05 A2982 RMK A01 T01860052  RH  041%=      5-min Rain = 0
KCH1 090102Z 19005KT 19/05 A2982 RMK A01 T01870052  RH  041%=      5-min Rain = 0
KCH1 090103Z 19005KT 19/05 A2982 RMK A01 T01880052  RH  041%=      5-min Rain = 0
KCH1 090104Z 21004KT 19/05 A2982 RMK A01 T01890052  RH  041%=      5-min Rain = 0
KCH1 090105Z 21004KT 19/05 A2982 RMK A01 T01900052  RH  040%=      5-min Rain = 0
KCH1 090106Z 19005KT 19/05 A2982 RMK A01 T01910052  RH  040%=      5-min Rain = 0
KCH1 090107Z 18005KT 19/05 A2982 RMK A01 T01910052  RH  040%=      5-min Rain = 0
KCH1 090108Z 19006KT 19/05 A2982 RMK A01 T01910052  RH  040%=      5-min Rain = 0
KCH1 090109Z 22004KT 19/05 A2982 RMK A01 T01910053  RH  040%=      5-min Rain = 0
KCH1 090110Z 24003KT 19/05 A2982 RMK A01 T01900054  RH  041%=      5-min Rain = 0
KCH1 090111Z 22003KT 19/05 A2982 RMK A01 T01880054  RH  041%=      5-min Rain = 0
KCH1 090112Z 20004KT 19/05 A2982 RMK A01 T01860054  RH  042%=      5-min Rain = 0
KCH1 090113Z 20005KT 19/06 A2982 RMK A01 T01860055  RH  042%=      5-min Rain = 0
KCH1 090114Z 20006KT 19/06 A2982 RMK A01 T01860056  RH  043%=      5-min Rain = 0
KCH1 090115Z 21006KT 19/06 A2982 RMK A01 T01860057  RH  043%=      5-min Rain = 0
KCH1 090116Z 21006KT 19/06 A2983 RMK A01 T01880059  RH  043%=      5-min Rain = 0
KCH1 090117Z 20007KT 19/06 A2982 RMK A01 T01880059  RH  043%=      5-min Rain = 0
KCH1 090118Z 19009KT 19/06 A2982 RMK A01 T01900061  RH  043%=      5-min Rain = 0
KCH1 090119Z 20009KT 19/06 A2982 RMK A01 T01910063  RH  043%=      5-min Rain = 0
KCH1 090120Z 21007KT 19/07 A2983 RMK A01 T01930065  RH  043%=      5-min Rain = 0
KCH1 090121Z 22007KT 20/07 A2983 RMK A01 T01950065  RH  043%=      5-min Rain = 0
KCH1 090122Z 22005KT 20/07 A2983 RMK A01 T01960066  RH  043%=      5-min Rain = 0
KCH1 090123Z 21006KT 20/07 A2983 RMK A01 T01950066  RH  043%=      5-min Rain = 0
KCH1 090124Z 20008KT 19/07 A2983 RMK A01 T01940066  RH  043%=      5-min Rain = 0
KCH1 090125Z 21009KT 20/07 A2983 RMK A01 T01950068  RH  043%=      5-min Rain = 0
KCH1 090126Z 21008KT 20/07 A2983 RMK A01 T01970069  RH  043%=      5-min Rain = 0
KCH1 090127Z 21008KT 20/07 A2983 RMK A01 T01980069  RH  043%=      5-min Rain = 0
KCH1 090128Z 22008KT 20/07 A2983 RMK A01 T01990069  RH  043%=      5-min Rain = 0
KCH1 090129Z 21008KT 20/07 A2983 RMK A01 T02000069  RH  043%=      5-min Rain = 0
KCH1 090130Z 21008KT 20/07 A2983 RMK A01 T02000069  RH  043%=      5-min Rain = 0
KCH1 090131Z 21008KT 20/07 A2983 RMK A01 T02000070  RH  043%=      5-min Rain = 0
KCH1 090132Z 21009KT 20/07 A2983 RMK A01 T02010070  RH  043%=      5-min Rain = 0
KCH1 090133Z 20009KT 20/07 A2983 RMK A01 T02000070  RH  043%=      5-min Rain = 0
KCH1 090134Z 20009KT 20/07 A2983 RMK A01 T02010070  RH  043%=      5-min Rain = 0
KCH1 090135Z 21008KT 20/07 A2983 RMK A01 T02020071  RH  043%=      5-min Rain = 0
KCH1 090136Z 21008KT 20/07 A2983 RMK A01 T02020071  RH  043%=      5-min Rain = 0
KCH1 090137Z 21008KT 20/07 A2983 RMK A01 T02020071  RH  043%=      5-min Rain = 0
KCH1 090138Z 21008KT 20/07 A2983 RMK A01 T02020071  RH  043%=      5-min Rain = 0
KCH1 090139Z 21009KT 20/07 A2983 RMK A01 T02020071  RH  043%=      5-min Rain = 0
KCH1 090140Z 21009KT 20/07 A2983 RMK A01 T02020071  RH  043%=      5-min Rain = 0
KCH1 090141Z 21008KT 20/07 A2983 RMK A01 T02020071  RH  043%=      5-min Rain = 0
KCH1 090142Z 21007KT 20/07 A2983 RMK A01 T02020072  RH  043%=      5-min Rain = 0
KCH1 090143Z 21008KT 20/07 A2983 RMK A01 T02020072  RH  043%=      5-min Rain = 0
KCH1 090144Z 20008KT 20/07 A2983 RMK A01 T02010072  RH  043%=      5-min Rain = 0
KCH1 090145Z 21009KT 20/07 A2983 RMK A01 T02010072  RH  043%=      5-min Rain = 0
KCH1 090146Z 21008KT 20/07 A2983 RMK A01 T02010072  RH  043%=      5-min Rain = 0
KCH1 090147Z 21008KT 20/07 A2983 RMK A01 T02010072  RH  043%=      5-min Rain = 0
KCH1 090148Z 21008KT 20/07 A2983 RMK A01 T02010072  RH  043%=      5-min Rain = 0
KCH1 090149Z 21008KT 20/07 A2983 RMK A01 T02000072  RH  043%=      5-min Rain = 0
KCH1 090150Z 21008KT 20/07 A2983 RMK A01 T02000072  RH  043%=      5-min Rain = 0
KCH1 090151Z 21009KT 20/07 A2983 RMK A01 T02000072  RH  043%=      5-min Rain = 0
KCH1 090152Z 21008KT 20/07 A2983 RMK A01 T02000072  RH  043%=      5-min Rain = 0
KCH1 090153Z 21007KT 20/07 A2983 RMK A01 T02010072  RH  043%=      5-min Rain = 0
KCH1 090154Z 21008KT 20/07 A2983 RMK A01 T02000071  RH  043%=      5-min Rain = 0
KCH1 090155Z 21007KT 20/07 A2983 RMK A01 T02010072  RH  043%=      5-min Rain = 0
KCH1 090156Z 21008KT 20/07 A2983 RMK A01 T02000072  RH  043%=      5-min Rain = 0
KCH1 090157Z 21008KT 20/07 A2983 RMK A01 T02000072  RH  043%=      5-min Rain = 0
KCH1 090158Z 21009KT 20/07 A2983 RMK A01 T02000071  RH  043%=      5-min Rain = 0
KCH1 090159Z 21008KT 20/07 A2983 RMK A01 T02000072  RH  043%=      5-min Rain = 0
KCH1 090200Z 20007KT 20/07 A2983 RMK A01 T02000072  RH  043%=      5-min Rain = 0
KCH1 090201Z 20008KT 20/07 A2983 RMK A01 T01990072  RH  044%=      5-min Rain = 0
KCH1 090202Z 20008KT 20/07 A2983 RMK A01 T01990072  RH  044%=      5-min Rain = 0
KCH1 090203Z 21009KT 20/07 A2983 RMK A01 T01990072  RH  044%=      5-min Rain = 0
KCH1 090204Z 20007KT 20/07 A2983 RMK A01 T01990072  RH  044%=      5-min Rain = 0
KCH1 090205Z 21008KT 20/07 A2983 RMK A01 T01980072  RH  044%=      5-min Rain = 0
KCH1 090206Z 21008KT 20/07 A2983 RMK A01 T01980072  RH  044%=      5-min Rain = 0
KCH1 090207Z 21008KT 20/07 A2983 RMK A01 T01970072  RH  044%=      5-min Rain = 0
KCH1 090208Z 21008KT 20/07 A2983 RMK A01 T01970071  RH  044%=      5-min Rain = 0
KCH1 090209Z 21009KT 20/07 A2984 RMK A01 T01970071  RH  044%=      5-min Rain = 0
KCH1 090210Z 21008KT 20/07 A2984 RMK A01 T01970071  RH  044%=      5-min Rain = 0
KCH1 090211Z 21008KT 20/07 A2984 RMK A01 T01970071  RH  044%=      5-min Rain = 0
KCH1 090212Z 22008KT 20/07 A2984 RMK A01 T01970071  RH  044%=      5-min Rain = 0
KCH1 090213Z 22008KT 20/07 A2984 RMK A01 T01970071  RH  044%=      5-min Rain = 0
KCH1 090214Z 22007KT 20/07 A2984 RMK A01 T01960071  RH  044%=      5-min Rain = 0
KCH1 090215Z 22008KT 20/07 A2984 RMK A01 T01960071  RH  044%=      5-min Rain = 0
KCH1 090216Z 22008KT 20/07 A2984 RMK A01 T01960071  RH  044%=      5-min Rain = 0
KCH1 090217Z 22007KT 20/07 A2984 RMK A01 T01950071  RH  044%=      5-min Rain = 0
KCH1 090218Z 21008KT 20/07 A2984 RMK A01 T01950071  RH  045%=      5-min Rain = 0
KCH1 090219Z 21007KT 20/07 A2984 RMK A01 T01950071  RH  045%=      5-min Rain = 0
KCH1 090220Z 22008KT 19/07 A2984 RMK A01 T01940071  RH  045%=      5-min Rain = 0
KCH1 090221Z 22006KT 20/07 A2984 RMK A01 T01950071  RH  045%=      5-min Rain = 0
KCH1 090222Z 22009KT 19/07 A2984 RMK A01 T01940071  RH  045%=      5-min Rain = 0
KCH1 090223Z 22007KT 19/07 A2984 RMK A01 T01940071  RH  045%=      5-min Rain = 0
KCH1 090224Z 22008KT 19/07 A2984 RMK A01 T01940071  RH  045%=      5-min Rain = 0
KCH1 090225Z 22007KT 19/07 A2984 RMK A01 T01940071  RH  045%=      5-min Rain = 0
KCH1 090226Z 22008KT 19/07 A2984 RMK A01 T01940071  RH  045%=      5-min Rain = 0
KCH1 090227Z 22008KT 19/07 A2984 RMK A01 T01940071  RH  045%=      5-min Rain = 0
KCH1 090228Z 22007KT 19/07 A2984 RMK A01 T01940071  RH  045%=      5-min Rain = 0
KCH1 090229Z 22008KT 19/07 A2984 RMK A01 T01940071  RH  045%=      5-min Rain = 0
KCH1 090230Z 21009KT 19/07 A2984 RMK A01 T01940071  RH  045%=      5-min Rain = 0
KCH1 090231Z 22008KT 20/07 A2984 RMK A01 T01950071  RH  044%=      5-min Rain = 0
KCH1 090232Z 22008KT 20/07 A2984 RMK A01 T01950071  RH  044%=      5-min Rain = 0
KCH1 090233Z 21009KT 20/07 A2984 RMK A01 T01950071  RH  044%=      5-min Rain = 0
KCH1 090234Z 22010KT 20/07 A2984 RMK A01 T01960071  RH  044%=      5-min Rain = 0
KCH1 090235Z 22010KT 20/07 A2984 RMK A01 T01970071  RH  044%=      5-min Rain = 0
KCH1 090236Z 21009KT 20/07 A2984 RMK A01 T01970071  RH  044%=      5-min Rain = 0
KCH1 090237Z 21011KT 20/07 A2984 RMK A01 T01970071  RH  044%=      5-min Rain = 0
KCH1 090238Z 21009KT 20/07 A2984 RMK A01 T01970071  RH  044%=      5-min Rain = 0
KCH1 090239Z 22007KT 20/07 A2984 RMK A01 T01970071  RH  044%=      5-min Rain = 0
KCH1 090240Z 21008KT 20/07 A2984 RMK A01 T01970071  RH  044%=      5-min Rain = 0
KCH1 090241Z 21008KT 20/07 A2984 RMK A01 T01970071  RH  044%=      5-min Rain = 0
KCH1 090242Z 22008KT 20/07 A2984 RMK A01 T01970071  RH  044%=      5-min Rain = 0
KCH1 090243Z 22007KT 20/07 A2984 RMK A01 T01960071  RH  044%=      5-min Rain = 0
KCH1 090244Z 22009KT 20/07 A2984 RMK A01 T01960071  RH  044%=      5-min Rain = 0
KCH1 090245Z 22008KT 20/07 A2984 RMK A01 T01960071  RH  044%=      5-min Rain = 0
KCH1 090246Z 22008KT 20/07 A2984 RMK A01 T01960071  RH  044%=      5-min Rain = 0
KCH1 090247Z 22009KT 20/07 A2984 RMK A01 T01960071  RH  044%=      5-min Rain = 0
KCH1 090248Z 22009KT 20/07 A2984 RMK A01 T01960071  RH  044%=      5-min Rain = 0
KCH1 090249Z 22008KT 20/07 A2984 RMK A01 T01960071  RH  044%=      5-min Rain = 0
KCH1 090250Z 23008KT 20/07 A2984 RMK A01 T01960071  RH  044%=      5-min Rain = 0
KCH1 090251Z 22007KT 20/07 A2984 RMK A01 T01950071  RH  044%=      5-min Rain = 0
KCH1 090252Z 23007KT 20/07 A2984 RMK A01 T01950071  RH  045%=      5-min Rain = 0
KCH1 090253Z 22006KT 20/07 A2984 RMK A01 T01950072  RH  045%=      5-min Rain = 0
KCH1 090254Z 23006KT 19/07 A2984 RMK A01 T01940071  RH  045%=      5-min Rain = 0
KCH1 090255Z 22007KT 19/07 A2984 RMK A01 T01940072  RH  045%=      5-min Rain = 0
KCH1 090256Z 23007KT 19/07 A2984 RMK A01 T01940071  RH  045%=      5-min Rain = 0
KCH1 090257Z 23008KT 19/07 A2984 RMK A01 T01940071  RH  045%=      5-min Rain = 0
KCH1 090258Z 23008KT 19/07 A2984 RMK A01 T01940071  RH  045%=      5-min Rain = 0
KCH1 090259Z 23008KT 19/07 A2984 RMK A01 T01940071  RH  045%=      5-min Rain = 0
KCH1 090300Z 22007KT 20/07 A2984 RMK A01 T01950071  RH  045%=      5-min Rain = 0
KCH1 090301Z 23008KT 20/07 A2984 RMK A01 T01950071  RH  044%=      5-min Rain = 0
KCH1 090302Z 23006KT 20/07 A2984 RMK A01 T01950071  RH  044%=      5-min Rain = 0
KCH1 090303Z 23008KT 20/07 A2984 RMK A01 T01950071  RH  044%=      5-min Rain = 0
KCH1 090304Z 23008KT 20/07 A2984 RMK A01 T01950071  RH  044%=      5-min Rain = 0
KCH1 090305Z 22007KT 20/07 A2984 RMK A01 T01950071  RH  045%=      5-min Rain = 0
KCH1 090306Z 23007KT 19/07 A2984 RMK A01 T01940071  RH  045%=      5-min Rain = 0
KCH1 090307Z 23007KT 19/07 A2984 RMK A01 T01940071  RH  045%=      5-min Rain = 0
KCH1 090308Z 23006KT 19/07 A2984 RMK A01 T01940071  RH  045%=      5-min Rain = 0
KCH1 090309Z 23007KT 19/07 A2984 RMK A01 T01940071  RH  045%=      5-min Rain = 0
KCH1 090310Z 23006KT 19/07 A2985 RMK A01 T01940070  RH  045%=      5-min Rain = 0
KCH1 090311Z 23006KT 19/07 A2985 RMK A01 T01940070  RH  045%=      5-min Rain = 0
KCH1 090312Z 23005KT 19/07 A2985 RMK A01 T01930070  RH  045%=      5-min Rain = 0
KCH1 090313Z 24007KT 19/07 A2985 RMK A01 T01940070  RH  045%=      5-min Rain = 0
KCH1 090314Z 24006KT 19/07 A2985 RMK A01 T01940070  RH  045%=      5-min Rain = 0
KCH1 090315Z 24005KT 19/07 A2985 RMK A01 T01940070  RH  044%=      5-min Rain = 0
KCH1 090316Z 23005KT 19/07 A2985 RMK A01 T01940070  RH  044%=      5-min Rain = 0
KCH1 090317Z 23006KT 19/07 A2985 RMK A01 T01940070  RH  044%=      5-min Rain = 0
KCH1 090318Z 23005G10KT 20/07 A2985 RMK A01 T01950071  RH  044%=      5-min Rain = 0
KCH1 090319Z 23008KT 20/07 A2985 RMK A01 T01950071  RH  044%=      5-min Rain = 0
KCH1 090320Z 24007KT 20/07 A2985 RMK A01 T01950070  RH  044%=      5-min Rain = 0
KCH1 090321Z 23008KT 20/07 A2985 RMK A01 T01960071  RH  044%=      5-min Rain = 0
KCH1 090322Z 23009KT 20/07 A2985 RMK A01 T01950071  RH  044%=      5-min Rain = 0
KCH1 090323Z 23006KT 20/07 A2985 RMK A01 T01960070  RH  044%=      5-min Rain = 0
KCH1 090324Z 23007KT 20/07 A2985 RMK A01 T01960071  RH  044%=      5-min Rain = 0
KCH1 090325Z 23007KT 20/07 A2985 RMK A01 T01950071  RH  044%=      5-min Rain = 0
KCH1 090326Z 24007KT 20/07 A2985 RMK A01 T01950071  RH  044%=      5-min Rain = 0
KCH1 090327Z 23008KT 20/07 A2985 RMK A01 T01950071  RH  044%=      5-min Rain = 0
KCH1 090328Z 23009KT 20/07 A2985 RMK A01 T01950071  RH  044%=      5-min Rain = 0
KCH1 090329Z 23008KT 20/07 A2985 RMK A01 T01950071  RH  044%=      5-min Rain = 0
KCH1 090330Z 23008KT 20/07 A2985 RMK A01 T01950071  RH  044%=      5-min Rain = 0
KCH1 090331Z 23008KT 20/07 A2985 RMK A01 T01950071  RH  044%=      5-min Rain = 0
KCH1 090332Z 23006KT 20/07 A2985 RMK A01 T01950071  RH  044%=      5-min Rain = 0
KCH1 090333Z 23008KT 20/07 A2985 RMK A01 T01950071  RH  044%=      5-min Rain = 0
KCH1 090334Z 23007KT 20/07 A2985 RMK A01 T01950071  RH  044%=      5-min Rain = 0
KCH1 090335Z 23009G15KT 20/07 A2984 RMK A01 T01950071  RH  044%=      5-min Rain = 0
KCH1 090336Z 24008KT 20/07 A2984 RMK A01 T01950071  RH  045%=      5-min Rain = 0
KCH1 090337Z 23007KT 20/07 A2984 RMK A01 T01950071  RH  044%=      5-min Rain = 0
KCH1 090338Z 23008KT 20/07 A2984 RMK A01 T01950071  RH  045%=      5-min Rain = 0
KCH1 090339Z 24007KT 19/07 A2984 RMK A01 T01940071  RH  045%=      5-min Rain = 0
KCH1 090340Z 23007KT 20/07 A2984 RMK A01 T01950071  RH  045%=      5-min Rain = 0
KCH1 090341Z 23007KT 19/07 A2984 RMK A01 T01940071  RH  045%=      5-min Rain = 0
KCH1 090342Z 23009KT 19/07 A2984 RMK A01 T01930071  RH  045%=      5-min Rain = 0
KCH1 090343Z 23007KT 19/07 A2984 RMK A01 T01930070  RH  045%=      5-min Rain = 0
KCH1 090344Z 23006KT 19/07 A2984 RMK A01 T01930070  RH  045%=      5-min Rain = 0
KCH1 090345Z 23008KT 19/07 A2984 RMK A01 T01920070  RH  045%=      5-min Rain = 0
KCH1 090346Z 24007KT 19/07 A2984 RMK A01 T01920070  RH  045%=      5-min Rain = 0
KCH1 090347Z 24007KT 19/07 A2984 RMK A01 T01920070  RH  045%=      5-min Rain = 0
KCH1 090348Z 24006KT 19/07 A2984 RMK A01 T01920070  RH  045%=      5-min Rain = 0
KCH1 090349Z 24006KT 19/07 A2984 RMK A01 T01920070  RH  045%=      5-min Rain = 0
KCH1 090350Z 23006KT 19/07 A2984 RMK A01 T01910070  RH  045%=      5-min Rain = 0
KCH1 090351Z 23009KT 19/07 A2984 RMK A01 T01910070  RH  045%=      5-min Rain = 0
KCH1 090352Z 22007KT 19/07 A2984 RMK A01 T01910070  RH  045%=      5-min Rain = 0
KCH1 090353Z 23006KT 19/07 A2984 RMK A01 T01910070  RH  045%=      5-min Rain = 0
KCH1 090354Z 23007KT 19/07 A2984 RMK A01 T01900070  RH  045%=      5-min Rain = 0
KCH1 090355Z 23007KT 19/07 A2984 RMK A01 T01900070  RH  046%=      5-min Rain = 0
KCH1 090356Z 23007KT 19/07 A2984 RMK A01 T01900070  RH  046%=      5-min Rain = 0
KCH1 090357Z 23006KT 19/07 A2984 RMK A01 T01890070  RH  046%=      5-min Rain = 0
KCH1 090358Z 23007KT 19/07 A2984 RMK A01 T01890070  RH  046%=      5-min Rain = 0
KCH1 090359Z 22007KT 19/07 A2984 RMK A01 T01890071  RH  046%=      5-min Rain = 0
KCH1 090400Z 23006KT 19/07 A2984 RMK A01 T01880070  RH  046%=      5-min Rain = 0
KCH1 090401Z 23005KT 19/07 A2984 RMK A01 T01880070  RH  046%=      5-min Rain = 0
KCH1 090402Z 23006KT 19/07 A2984 RMK A01 T01880070  RH  046%=      5-min Rain = 0
KCH1 090403Z 23007KT 19/07 A2984 RMK A01 T01870070  RH  046%=      5-min Rain = 0
KCH1 090404Z 24006KT 19/07 A2984 RMK A01 T01880070  RH  046%=      5-min Rain = 0
KCH1 090405Z 24006KT 19/07 A2984 RMK A01 T01880070  RH  046%=      5-min Rain = 0
KCH1 090406Z 24004KT 19/07 A2984 RMK A01 T01890070  RH  046%=      5-min Rain = 0
KCH1 090407Z 24005KT 19/07 A2984 RMK A01 T01880071  RH  046%=      5-min Rain = 0
KCH1 090408Z 23005KT 19/07 A2984 RMK A01 T01880070  RH  046%=      5-min Rain = 0
KCH1 090409Z 24006KT 19/07 A2984 RMK A01 T01870070  RH  046%=      5-min Rain = 0
KCH1 090410Z 23005KT 19/07 A2984 RMK A01 T01880070  RH  046%=      5-min Rain = 0
KCH1 090411Z 23004KT 19/07 A2984 RMK A01 T01880071  RH  046%=      5-min Rain = 0
KCH1 090412Z 23005KT 19/07 A2984 RMK A01 T01870070  RH  046%=      5-min Rain = 0
KCH1 090413Z 23004KT 19/07 A2984 RMK A01 T01870070  RH  047%=      5-min Rain = 0
KCH1 090414Z 22005KT 19/07 A2984 RMK A01 T01870071  RH  047%=      5-min Rain = 0
KCH1 090415Z 23004KT 19/07 A2984 RMK A01 T01860071  RH  047%=      5-min Rain = 0
KCH1 090416Z 22005KT 19/07 A2984 RMK A01 T01860070  RH  047%=      5-min Rain = 0
KCH1 090417Z 22004KT 19/07 A2984 RMK A01 T01860071  RH  047%=      5-min Rain = 0
KCH1 090418Z 22003KT 19/07 A2984 RMK A01 T01860071  RH  047%=      5-min Rain = 0
KCH1 090419Z 22003KT 19/07 A2984 RMK A01 T01850071  RH  047%=      5-min Rain = 0
KCH1 090420Z 23005KT 18/07 A2984 RMK A01 T01840071  RH  047%=      5-min Rain = 0
KCH1 090421Z 23004KT 18/07 A2985 RMK A01 T01840071  RH  048%=      5-min Rain = 0
KCH1 090422Z 23003KT 18/07 A2985 RMK A01 T01840071  RH  048%=      5-min Rain = 0
KCH1 090423Z 23004KT 18/07 A2985 RMK A01 T01830071  RH  048%=      5-min Rain = 0
KCH1 090424Z 23005KT 18/07 A2985 RMK A01 T01830071  RH  048%=      5-min Rain = 0
KCH1 090425Z 23004KT 18/07 A2985 RMK A01 T01820071  RH  048%=      5-min Rain = 0
KCH1 090426Z 24003KT 18/07 A2985 RMK A01 T01820071  RH  048%=      5-min Rain = 0
KCH1 090427Z 24004KT 18/07 A2985 RMK A01 T01810071  RH  048%=      5-min Rain = 0
KCH1 090428Z 23003KT 18/07 A2985 RMK A01 T01810071  RH  048%=      5-min Rain = 0
KCH1 090429Z 24003KT 18/07 A2985 RMK A01 T01810071  RH  048%=      5-min Rain = 0
KCH1 090430Z 23002KT 18/07 A2985 RMK A01 T01810071  RH  049%=      5-min Rain = 0
KCH1 090431Z 24003KT 18/07 A2985 RMK A01 T01800071  RH  049%=      5-min Rain = 0
KCH1 090432Z 23004KT 18/07 A2985 RMK A01 T01800070  RH  049%=      5-min Rain = 0
KCH1 090433Z 22004KT 18/07 A2985 RMK A01 T01800071  RH  049%=      5-min Rain = 0
KCH1 090434Z 22004KT 18/07 A2984 RMK A01 T01800071  RH  049%=      5-min Rain = 0
KCH1 090435Z 22004KT 18/07 A2984 RMK A01 T01790071  RH  049%=      5-min Rain = 0
KCH1 090436Z 22004KT 18/07 A2984 RMK A01 T01790071  RH  049%=      5-min Rain = 0
KCH1 090437Z 22004KT 18/07 A2984 RMK A01 T01780071  RH  049%=      5-min Rain = 0
KCH1 090438Z 22005KT 18/07 A2984 RMK A01 T01780071  RH  050%=      5-min Rain = 0
KCH1 090439Z 22004KT 18/07 A2984 RMK A01 T01770071  RH  050%=      5-min Rain = 0
KCH1 090440Z 21006KT 18/07 A2984 RMK A01 T01770071  RH  050%=      5-min Rain = 0
KCH1 090441Z 20005KT 18/07 A2984 RMK A01 T01770071  RH  050%=      5-min Rain = 0
KCH1 090442Z 21005KT 18/07 A2984 RMK A01 T01770072  RH  050%=      5-min Rain = 0
KCH1 090443Z 21005KT 18/07 A2984 RMK A01 T01770072  RH  050%=      5-min Rain = 0
KCH1 090444Z 21004KT 18/07 A2984 RMK A01 T01770072  RH  050%=      5-min Rain = 0
KCH1 090445Z 21005KT 18/07 A2984 RMK A01 T01770072  RH  050%=      5-min Rain = 0
KCH1 090446Z 21005KT 18/07 A2984 RMK A01 T01770072  RH  050%=      5-min Rain = 0
KCH1 090447Z 22004KT 18/07 A2984 RMK A01 T01770072  RH  050%=      5-min Rain = 0
KCH1 090448Z 22005KT 18/07 A2984 RMK A01 T01760072  RH  050%=      5-min Rain = 0
KCH1 090449Z 22005KT 18/07 A2984 RMK A01 T01760072  RH  051%=      5-min Rain = 0
KCH1 090450Z 22005KT 18/07 A2984 RMK A01 T01750072  RH  051%=      5-min Rain = 0
KCH1 090451Z 23005KT 18/07 A2984 RMK A01 T01750072  RH  051%=      5-min Rain = 0
KCH1 090452Z 23007KT 18/07 A2984 RMK A01 T01750072  RH  051%=      5-min Rain = 0
KCH1 090453Z 23005KT 18/07 A2984 RMK A01 T01750072  RH  051%=      5-min Rain = 0
KCH1 090454Z 23005KT 18/07 A2984 RMK A01 T01750073  RH  051%=      5-min Rain = 0
KCH1 090455Z 23006KT 17/07 A2984 RMK A01 T01740072  RH  051%=      5-min Rain = 0
KCH1 090456Z 23005KT 17/07 A2984 RMK A01 T01740072  RH  051%=      5-min Rain = 0
KCH1 090457Z 23006KT 17/07 A2985 RMK A01 T01740072  RH  051%=      5-min Rain = 0
KCH1 090458Z 23006KT 17/07 A2985 RMK A01 T01730072  RH  051%=      5-min Rain = 0
KCH1 090459Z 23005KT 17/07 A2985 RMK A01 T01730072  RH  051%=      5-min Rain = 0
KCH1 090500Z 22006KT 17/07 A2985 RMK A01 T01730072  RH  052%=      5-min Rain = 0
KCH1 090501Z 22006KT 17/07 A2985 RMK A01 T01730073  RH  052%=      5-min Rain = 0
KCH1 090502Z 23006KT 17/07 A2985 RMK A01 T01720072  RH  052%=      5-min Rain = 0
KCH1 090503Z 23006KT 17/07 A2985 RMK A01 T01720073  RH  052%=      5-min Rain = 0
KCH1 090504Z 23006KT 17/07 A2985 RMK A01 T01710072  RH  052%=      5-min Rain = 0
KCH1 090505Z 23005KT 17/07 A2985 RMK A01 T01710072  RH  052%=      5-min Rain = 0
KCH1 090506Z 24005KT 17/07 A2985 RMK A01 T01720072  RH  052%=      5-min Rain = 0
KCH1 090507Z 23005KT 17/07 A2985 RMK A01 T01720072  RH  052%=      5-min Rain = 0
KCH1 090508Z 24004KT 17/07 A2985 RMK A01 T01720072  RH  052%=      5-min Rain = 0
KCH1 090509Z 24004KT 17/07 A2985 RMK A01 T01720072  RH  052%=      5-min Rain = 0
KCH1 090510Z 24004KT 17/07 A2985 RMK A01 T01720072  RH  052%=      5-min Rain = 0
KCH1 090511Z 24004KT 17/07 A2985 RMK A01 T01720072  RH  052%=      5-min Rain = 0
KCH1 090512Z 24005KT 17/07 A2985 RMK A01 T01710072  RH  052%=      5-min Rain = 0
KCH1 090513Z 23004KT 17/07 A2985 RMK A01 T01710072  RH  052%=      5-min Rain = 0
KCH1 090514Z 23005KT 17/07 A2985 RMK A01 T01700072  RH  052%=      5-min Rain = 0
KCH1 090515Z 23005KT 17/07 A2985 RMK A01 T01700072  RH  053%=      5-min Rain = 0
KCH1 090516Z 22005KT 17/07 A2985 RMK A01 T01700072  RH  053%=      5-min Rain = 0
KCH1 090517Z 22006KT 17/07 A2985 RMK A01 T01700072  RH  053%=      5-min Rain = 0
KCH1 090518Z 22005KT 17/07 A2985 RMK A01 T01690072  RH  053%=      5-min Rain = 0
KCH1 090519Z 23005KT 17/07 A2985 RMK A01 T01690072  RH  053%=      5-min Rain = 0
KCH1 090520Z 23005KT 17/07 A2985 RMK A01 T01690072  RH  053%=      5-min Rain = 0
KCH1 090521Z 23005KT 17/07 A2985 RMK A01 T01690072  RH  053%=      5-min Rain = 0
KCH1 090522Z 23006KT 17/07 A2985 RMK A01 T01690072  RH  053%=      5-min Rain = 0
KCH1 090523Z 23005KT 17/07 A2985 RMK A01 T01690072  RH  053%=      5-min Rain = 0
KCH1 090524Z 23005KT 17/07 A2985 RMK A01 T01690072  RH  053%=      5-min Rain = 0
KCH1 090525Z 23004KT 17/07 A2985 RMK A01 T01690072  RH  053%=      5-min Rain = 0
KCH1 090526Z 23005KT 17/07 A2985 RMK A01 T01690072  RH  053%=      5-min Rain = 0
KCH1 090527Z 23006KT 17/07 A2985 RMK A01 T01680072  RH  053%=      5-min Rain = 0
KCH1 090528Z 23006KT 17/07 A2985 RMK A01 T01680072  RH  053%=      5-min Rain = 0
KCH1 090529Z 23005KT 17/07 A2985 RMK A01 T01680072  RH  053%=      5-min Rain = 0
KCH1 090530Z 22006KT 17/07 A2985 RMK A01 T01680072  RH  053%=      5-min Rain = 0
KCH1 090531Z 22005KT 17/07 A2985 RMK A01 T01680072  RH  053%=      5-min Rain = 0
KCH1 090532Z 22006KT 17/07 A2985 RMK A01 T01670072  RH  053%=      5-min Rain = 0
KCH1 090533Z 22006KT 17/07 A2985 RMK A01 T01680072  RH  053%=      5-min Rain = 0
KCH1 090534Z 23005KT 17/07 A2985 RMK A01 T01670072  RH  053%=      5-min Rain = 0
KCH1 090535Z 23005KT 17/07 A2985 RMK A01 T01680073  RH  054%=      5-min Rain = 0
KCH1 090536Z 23006KT 17/07 A2985 RMK A01 T01670072  RH  054%=      5-min Rain = 0
KCH1 090537Z 23006KT 17/07 A2985 RMK A01 T01670072  RH  053%=      5-min Rain = 0
KCH1 090538Z 23006KT 17/07 A2985 RMK A01 T01680072  RH  053%=      5-min Rain = 0
KCH1 090539Z 23006KT 17/07 A2985 RMK A01 T01680072  RH  053%=      5-min Rain = 0
KCH1 090540Z 22006KT 17/07 A2985 RMK A01 T01690072  RH  053%=      5-min Rain = 0
KCH1 090541Z 22006KT 17/07 A2985 RMK A01 T01690072  RH  053%=      5-min Rain = 0
KCH1 090542Z 22006KT 17/07 A2985 RMK A01 T01680073  RH  053%=      5-min Rain = 0
KCH1 090543Z 23007KT 17/07 A2985 RMK A01 T01680073  RH  053%=      5-min Rain = 0
KCH1 090544Z 23006KT 17/07 A2985 RMK A01 T01680073  RH  053%=      5-min Rain = 0
KCH1 090545Z 22006KT 17/07 A2985 RMK A01 T01680073  RH  054%=      5-min Rain = 0
KCH1 090546Z 23007KT 17/07 A2985 RMK A01 T01680073  RH  054%=      5-min Rain = 0
KCH1 090547Z 23007KT 17/07 A2985 RMK A01 T01680073  RH  054%=      5-min Rain = 0
KCH1 090548Z 23008KT 17/07 A2985 RMK A01 T01680073  RH  053%=      5-min Rain = 0
KCH1 090549Z 23006KT 17/07 A2985 RMK A01 T01690073  RH  053%=      5-min Rain = 0
KCH1 090550Z 23007KT 17/07 A2985 RMK A01 T01690073  RH  053%=      5-min Rain = 0
KCH1 090551Z 23007KT 17/07 A2985 RMK A01 T01700073  RH  053%=      5-min Rain = 0
KCH1 090552Z 23007KT 17/07 A2985 RMK A01 T01700073  RH  053%=      5-min Rain = 0
KCH1 090553Z 22009KT 17/07 A2985 RMK A01 T01700073  RH  053%=      5-min Rain = 0
KCH1 090554Z 23007KT 17/07 A2985 RMK A01 T01710073  RH  053%=      5-min Rain = 0
KCH1 090555Z 23007KT 17/07 A2984 RMK A01 T01710073  RH  052%=      5-min Rain = 0
KCH1 090556Z 23007KT 17/07 A2984 RMK A01 T01710073  RH  052%=      5-min Rain = 0
KCH1 090557Z 23008KT 17/07 A2984 RMK A01 T01710074  RH  053%=      5-min Rain = 0
KCH1 090558Z 22008KT 17/07 A2985 RMK A01 T01710074  RH  053%=      5-min Rain = 0
KCH1 090559Z 23007KT 17/07 A2985 RMK A01 T01720074  RH  052%=      5-min Rain = 0

Page generated in 0.0711 seconds.